BA280 / G-ZBKC 7700 Squawk Report (18th of March, 2019)

Aircraft B789 Reg No. G-ZBKC Age 3 years old
Model 787 Jet engines 2 First flight 09-10-15
Registered 23-10-15 Rollout 11-09-15 Delivered 25-10-15
Construction No. 38621 Line No. 0360 Series 9
ADSHEX 406D79 Airline name British Airways Owner N/A
Airfield based Heathrow~Gtr London~G First tracked 2017-07-13 16:14:00
Time Lat Lon Altitude Heading Speed Vertical Rate
2019-03-18 11:55:08 GMT 51.477619 -0.456582 0 272 69 0
2019-03-18 11:54:55 GMT 51.477650 -0.448227 -150 270 136 -128
2019-03-18 11:54:47 GMT 51.477695 -0.430832 -25 270 141 -704
2019-03-18 11:54:37 GMT 51.477695 -0.430832 -100 270 141 -704
2019-03-18 11:54:34 GMT 51.477722 -0.428244 0 270 141 -832
2019-03-18 11:54:28 GMT 51.477722 -0.420895 50 270 140 -768
2019-03-18 11:54:25 GMT 51.477722 -0.418817 150 270 142 -768
2019-03-18 11:54:18 GMT 51.477745 -0.409851 200 270 143 -832
2019-03-18 11:54:12 GMT 51.477745 -0.403748 275 270 141 -768
2019-03-18 11:54:06 GMT 51.477745 -0.398788 325 270 140 -704
2019-03-18 11:54:03 GMT 51.477768 -0.394691 350 270 140 -768
2019-03-18 11:53:54 GMT 51.477814 -0.385783 525 270 143 -768
2019-03-18 11:53:50 GMT 51.477837 -0.380630 525 270 143 -832
2019-03-18 11:53:46 GMT 51.477837 -0.377197 575 270 144 -832
2019-03-18 11:53:43 GMT 51.477882 -0.373611 625 270 144 -896
2019-03-18 11:53:36 GMT 51.477928 -0.361481 700 270 143 -832
2019-03-18 11:53:33 GMT 51.477928 -0.361481 800 270 143 -704
2019-03-18 11:53:27 GMT 51.477951 -0.356981 825 270 143 -704
2019-03-18 11:53:24 GMT 51.477928 -0.354309 850 270 143 -640
2019-03-18 11:53:21 GMT 51.477951 -0.351043 925 270 148 -832
2019-03-18 11:53:18 GMT 51.477951 -0.347851 1,000 270 150 -768
2019-03-18 11:53:15 GMT 51.477951 -0.344659 975 270 145 -704
2019-03-18 11:53:12 GMT 51.477978 -0.340042 1,050 270 150 -896
2019-03-18 11:53:09 GMT 51.477951 -0.338201 1,050 270 147 -704
2019-03-18 11:53:05 GMT 51.477951 -0.333895 1,125 270 147 -768
2019-03-18 11:53:02 GMT 51.477997 -0.330184 1,125 270 148 -832
2019-03-18 11:52:59 GMT 51.477997 -0.327289 1,150 270 149 -896
2019-03-18 11:52:56 GMT 51.477978 -0.322723 1,250 270 151 -896
2019-03-18 11:52:50 GMT 51.478024 -0.317154 1,325 270 150 -768
2019-03-18 11:52:46 GMT 51.478043 -0.311329 1,425 270 150 -832
2019-03-18 11:52:43 GMT 51.478024 -0.309677 1,450 270 151 -960
2019-03-18 11:52:40 GMT 51.478043 -0.306429 1,475 270 150 -832
2019-03-18 11:52:37 GMT 51.478043 -0.303312 1,500 270 150 -896
2019-03-18 11:52:34 GMT 51.478088 -0.299303 1,600 270 152 -960
2019-03-18 11:52:30 GMT 51.478088 -0.295072 1,600 270 152 -960
2019-03-18 11:52:27 GMT 51.478088 -0.291657 1,650 270 152 -1024
2019-03-18 11:52:23 GMT 51.478088 -0.286684 1,700 270 153 -960
2019-03-18 11:52:20 GMT 51.478088 -0.280300 1,800 270 154 -768
2019-03-18 11:52:17 GMT 51.478088 -0.275326 1,850 270 156 -960
2019-03-18 11:52:13 GMT 51.478088 -0.275326 1,875 270 154 -704
2019-03-18 11:52:10 GMT 51.478088 -0.272357 2,075 270 155 -896
2019-03-18 11:52:07 GMT 51.478134 -0.263598 2,050 270 158 -768
2019-03-18 11:52:03 GMT 51.478134 -0.263598 1,975 270 157 -896
2019-03-18 11:51:59 GMT 51.478134 -0.259589 2,075 270 160 -960
2019-03-18 11:51:55 GMT 51.478115 -0.254059 2,200 270 165 -832
2019-03-18 11:51:52 GMT 51.478134 -0.251795 2,150 271 174 -1024
2019-03-18 11:51:48 GMT 51.478165 -0.245209 2,200 270 162 -1088
2019-03-18 11:51:45 GMT 51.478134 -0.239027 2,325 270 165 -832
2019-03-18 11:51:42 GMT 51.478134 -0.239027 2,300 270 165 -768
2019-03-18 11:51:38 GMT 51.478165 -0.232773 2,375 271 173 -1216
2019-03-18 11:51:35 GMT 51.478115 -0.230255 2,550 271 172 -1152
2019-03-18 11:51:32 GMT 51.478115 -0.226440 2,450 271 172 -1152
2019-03-18 11:51:29 GMT 51.478115 -0.221863 2,525 271 174 -1152
2019-03-18 11:51:26 GMT 51.478088 -0.219133 2,600 271 174 -1024
2019-03-18 11:51:23 GMT 51.478115 -0.210495 2,675 270 174 -1088
2019-03-18 11:51:17 GMT 51.478180 -0.206216 2,750 269 173 -704
2019-03-18 11:51:14 GMT 51.478363 -0.200352 2,800 265 171 -1152
2019-03-18 11:51:11 GMT 51.478363 -0.200352 3,225 236 183 -1280
2019-03-18 11:51:08 GMT 51.478813 -0.194473 2,850 262 171 -1216
2019-03-18 11:51:05 GMT 51.479141 -0.192038 2,925 254 174 -1280
2019-03-18 11:51:02 GMT 51.480118 -0.187759 3,025 243 178 -1472
2019-03-18 11:50:56 GMT 51.482483 -0.181200 3,200 236 183 -1344
2019-03-18 11:50:53 GMT 51.483948 -0.177860 3,225 236 183 -1344
2019-03-18 11:50:50 GMT 51.485146 -0.175095 3,275 236 183 -1280
2019-03-18 11:50:47 GMT 51.486916 -0.171127 3,375 236 183 -1216
2019-03-18 11:50:44 GMT 51.488171 -0.168228 3,525 236 183 -1088
2019-03-18 11:50:41 GMT 51.489895 -0.164261 3,475 221 187 0
2019-03-18 11:50:38 GMT 51.491318 -0.161009 3,550 235 180 -896
2019-03-18 11:50:34 GMT 51.493240 -0.156629 3,575 235 182 -768
2019-03-18 11:50:31 GMT 51.494202 -0.154477 3,625 235 181 -832
2019-03-18 11:50:28 GMT 51.495712 -0.151062 3,650 235 182 -768
2019-03-18 11:50:25 GMT 51.498878 -0.144043 3,750 231 184 -512
2019-03-18 11:50:22 GMT 51.498878 -0.144043 3,800 231 183 -448
2019-03-18 11:50:19 GMT 51.500381 -0.140966 3,775 232 183 -576
2019-03-18 11:50:16 GMT 51.502396 -0.136884 3,800 231 183 -448
2019-03-18 11:50:13 GMT 51.504139 -0.133667 3,825 224 186 -512
2019-03-18 11:50:10 GMT 51.505116 -0.132141 3,925 104 248 -1984
2019-03-18 11:50:06 GMT 51.510956 -0.125304 3,900 211 191 -832
2019-03-18 11:50:00 GMT 51.512333 -0.124359 3,975 201 193 -768
2019-03-18 11:49:56 GMT 51.516289 -0.122375 4,025 187 197 -768
2019-03-18 11:49:53 GMT 51.520107 -0.121689 4,050 176 204 -768
2019-03-18 11:49:50 GMT 51.521969 -0.121689 4,075 179 202 -768
2019-03-18 11:49:46 GMT 51.525787 -0.122037 4,150 173 206 -960
2019-03-18 11:49:43 GMT 51.528530 -0.122452 4,175 173 206 -960
2019-03-18 11:49:40 GMT 51.530811 -0.122833 4,200 173 207 -960
2019-03-18 11:49:37 GMT 51.534260 -0.123444 4,300 165 213 -448
2019-03-18 11:49:34 GMT 51.537598 -0.124339 4,350 160 216 -320
2019-03-18 11:49:31 GMT 51.539986 -0.125046 4,325 167 211 -448
2019-03-18 11:49:28 GMT 51.546268 -0.128174 4,350 160 216 -320
2019-03-18 11:49:24 GMT 51.546268 -0.128174 4,350 133 235 -704
2019-03-18 11:49:21 GMT 51.549820 -0.131168 4,375 144 227 -320
2019-03-18 11:49:18 GMT 51.551559 -0.133024 4,475 131 237 -1152
2019-03-18 11:49:14 GMT 51.555176 -0.137700 4,400 138 230 -448
2019-03-18 11:49:11 GMT 51.557301 -0.140915 4,450 133 234 -640
2019-03-18 11:49:08 GMT 51.559799 -0.144975 4,475 131 237 -1152
2019-03-18 11:49:05 GMT 51.564880 -0.154106 4,500 129 238 -1088
2019-03-18 11:49:02 GMT 51.564880 -0.154106 4,525 129 238 -1088
2019-03-18 11:48:59 GMT 51.565914 -0.156174 4,750 121 244 -1152
2019-03-18 11:48:55 GMT 51.568707 -0.162735 4,675 106 247 -1408
2019-03-18 11:48:52 GMT 51.571564 -0.171995 4,750 112 246 -1472
2019-03-18 11:48:49 GMT 51.571564 -0.171995 4,925 108 247 -1536
2019-03-18 11:48:45 GMT 51.573128 -0.179520 4,900 105 247 -1472
2019-03-18 11:48:42 GMT 51.574291 -0.186615 5,025 103 248 -1600
2019-03-18 11:48:39 GMT 51.574905 -0.190405 5,050 103 248 -1600
2019-03-18 11:48:36 GMT 51.575691 -0.195541 5,200 103 248 -1792
2019-03-18 11:48:33 GMT 51.576527 -0.200958 5,225 103 248 -1792
2019-03-18 11:48:30 GMT 51.577366 -0.206299 5,350 104 248 -1920
2019-03-18 11:48:27 GMT 51.578251 -0.212021 5,375 104 248 -1920
2019-03-18 11:48:24 GMT 51.579254 -0.218316 5,550 104 248 -1984
2019-03-18 11:48:21 GMT 51.580112 -0.223846 5,675 104 249 -1920
2019-03-18 11:48:18 GMT 51.581131 -0.230119 6,000 104 249 -1920
2019-03-18 11:48:14 GMT 51.581837 -0.234604 5,825 103 250 -1856
2019-03-18 11:48:11 GMT 51.583603 -0.246124 6,125 103 251 -1920
2019-03-18 11:48:08 GMT 51.584255 -0.250473 6,075 103 251 -1920
2019-03-18 11:48:02 GMT 51.585342 -0.257585 6,300 101 252 -1792
2019-03-18 11:47:59 GMT 51.586349 -0.264664 6,350 102 252 -1856
2019-03-18 11:47:56 GMT 51.587002 -0.269394 6,400 102 252 -1856
2019-03-18 11:47:53 GMT 51.587467 -0.273132 6,500 101 252 -1792
2019-03-18 11:47:50 GMT 51.588165 -0.278625 6,600 100 252 -1920
2019-03-18 11:47:47 GMT 51.588772 -0.284500 6,700 98 252 -1984
2019-03-18 11:47:43 GMT 51.589371 -0.291435 7,000 94 252 -1856
2019-03-18 11:47:40 GMT 51.590057 -0.303757 7,000 94 252 -1600
2019-03-18 11:47:34 GMT 51.590378 -0.310512 7,100 94 254 -1216
2019-03-18 11:47:31 GMT 51.590542 -0.314026 7,175 94 254 -1216
2019-03-18 11:47:28 GMT 51.590881 -0.321053 7,225 94 254 -1216
2019-03-18 11:47:25 GMT 51.591110 -0.325581 7,300 94 254 -1216
2019-03-18 11:47:22 GMT 51.591614 -0.336865 7,375 94 254 -1216
2019-03-18 11:47:16 GMT 51.591934 -0.343249 7,650 94 253 -1088
2019-03-18 11:47:13 GMT 51.592262 -0.349808 7,525 94 253 -1216
2019-03-18 11:47:10 GMT 51.592587 -0.356598 7,575 94 253 -1216
2019-03-18 11:47:07 GMT 51.592773 -0.360336 7,650 94 253 -1088
2019-03-18 11:47:04 GMT 51.592987 -0.364998 7,725 94 253 -1024
2019-03-18 11:47:01 GMT 51.593334 -0.372314 7,775 94 253 -1024
2019-03-18 11:46:58 GMT 51.593811 -0.381849 7,850 94 253 -1024
2019-03-18 11:46:55 GMT 51.593811 -0.381849 7,875 94 253 -896
2019-03-18 11:46:52 GMT 51.594078 -0.387344 7,925 94 253 -960
2019-03-18 11:46:49 GMT 51.594685 -0.399323 8,025 94 254 -1024
2019-03-18 11:46:46 GMT 51.594685 -0.399323 8,000 94 254 -1024
2019-03-18 11:46:43 GMT 51.594963 -0.404663 8,050 94 254 -1088
2019-03-18 11:46:40 GMT 51.595276 -0.411245 9,075 174 261 -448
2019-03-18 11:46:37 GMT 51.595615 -0.417480 8,150 94 254 -1152
2019-03-18 11:46:34 GMT 51.595798 -0.420456 8,200 94 254 -1280
2019-03-18 11:46:31 GMT 51.596172 -0.427246 8,275 95 255 -1280
2019-03-18 11:46:28 GMT 51.596825 -0.438614 8,375 95 255 -1344
2019-03-18 11:46:25 GMT 51.596825 -0.438614 8,475 95 255 -1216
2019-03-18 11:46:22 GMT 51.597149 -0.443878 8,550 96 255 -1152
2019-03-18 11:46:19 GMT 51.597610 -0.450811 8,650 96 254 -1088
2019-03-18 11:46:16 GMT 51.597942 -0.455170 8,575 97 255 -1088
2019-03-18 11:46:13 GMT 51.598618 -0.462465 8,675 101 256 -832
2019-03-18 11:46:10 GMT 51.599106 -0.466766 8,700 101 256 -832
2019-03-18 11:46:07 GMT 51.600037 -0.473099 8,750 105 258 -896
2019-03-18 11:46:03 GMT 51.601479 -0.480347 8,825 112 259 -832
2019-03-18 11:45:57 GMT 51.604294 -0.490376 8,900 123 259 -512
2019-03-18 11:45:54 GMT 51.605759 -0.494830 8,925 118 260 -576
2019-03-18 11:45:51 GMT 51.607956 -0.501214 8,950 119 259 -512
2019-03-18 11:45:48 GMT 51.609650 -0.505891 8,975 120 259 -448
2019-03-18 11:45:45 GMT 51.613213 -0.515289 9,000 122 259 -512
2019-03-18 11:45:39 GMT 51.615051 -0.519475 9,125 129 259 -448
2019-03-18 11:45:36 GMT 51.620178 -0.528606 9,125 144 258 -448
2019-03-18 11:45:33 GMT 51.620178 -0.528606 9,125 152 258 -448
2019-03-18 11:45:30 GMT 51.623337 -0.532763 9,100 150 257 -448
2019-03-18 11:45:27 GMT 51.626358 -0.535880 9,175 152 258 -448
2019-03-18 11:45:24 GMT 51.629875 -0.538788 9,175 162 259 -448
2019-03-18 11:45:21 GMT 51.632172 -0.540260 9,175 166 259 -448
2019-03-18 11:45:18 GMT 51.636208 -0.542297 9,175 162 259 -448
2019-03-18 11:45:15 GMT 51.639977 -0.543594 9,275 174 260 -448
2019-03-18 11:45:12 GMT 51.643661 -0.544343 9,250 173 260 -448
2019-03-18 11:45:09 GMT 51.647102 -0.544891 9,250 174 261 -448
2019-03-18 11:45:06 GMT 51.649658 -0.545234 9,275 175 261 -512
2019-03-18 11:45:03 GMT 51.654362 -0.545883 9,325 175 262 -512
2019-03-18 11:45:00 GMT 51.657761 -0.546265 9,325 176 265 -448
2019-03-18 11:44:56 GMT 51.663528 -0.546793 9,350 177 267 -448
2019-03-18 11:44:53 GMT 51.669754 -0.547089 9,375 179 270 -448
2019-03-18 11:44:50 GMT 51.673405 -0.547028 9,450 182 272 -512
2019-03-18 11:44:47 GMT 51.677452 -0.546875 9,425 182 274 -448
2019-03-18 11:44:44 GMT 51.677452 -0.546875 9,450 182 274 -448
2019-03-18 11:44:41 GMT 51.681885 -0.546644 9,475 182 278 -320
2019-03-18 11:44:38 GMT 51.684952 -0.546496 9,475 181 281 -320
2019-03-18 11:44:35 GMT 51.688721 -0.546341 9,475 182 280 -320
2019-03-18 11:44:32 GMT 51.693283 -0.546273 9,500 179 285 -320
2019-03-18 11:44:28 GMT 51.697887 -0.546341 9,525 178 287 -320
2019-03-18 11:44:25 GMT 51.702454 -0.546646 9,575 173 293 -320
2019-03-18 11:44:22 GMT 51.705780 -0.547015 9,575 169 297 -384
2019-03-18 11:44:19 GMT 51.709713 -0.547638 9,550 167 300 -448
2019-03-18 11:44:16 GMT 51.715393 -0.549164 9,575 170 296 -384
2019-03-18 11:44:13 GMT 51.717407 -0.549910 9,600 166 300 -448
2019-03-18 11:44:10 GMT 51.723083 -0.552063 9,625 165 304 -576
2019-03-18 11:44:07 GMT 51.726379 -0.553473 9,650 164 304 -704
2019-03-18 11:44:03 GMT 51.731407 -0.555725 9,725 163 307 -1024
2019-03-18 11:44:00 GMT 51.736855 -0.558319 9,775 162 308 -1024
2019-03-18 11:43:57 GMT 51.740799 -0.560451 9,950 158 314 -896
2019-03-18 11:43:54 GMT 51.743649 -0.562057 10,050 158 315 -832
2019-03-18 11:43:51 GMT 51.748211 -0.564880 9,925 158 314 -896
2019-03-18 11:43:48 GMT 51.752106 -0.567355 9,950 158 314 -896
2019-03-18 11:43:45 GMT 51.761078 -0.573145 10,025 158 317 -704
2019-03-18 11:43:42 GMT 51.761078 -0.573145 10,050 158 318 -704
2019-03-18 11:43:39 GMT 51.765575 -0.576019 10,075 158 321 -576
2019-03-18 11:43:36 GMT 51.768883 -0.578156 10,100 158 323 -576
2019-03-18 11:43:33 GMT 51.771675 -0.579910 10,125 158 324 -512
2019-03-18 11:43:30 GMT 51.777260 -0.583496 10,150 158 327 -512
2019-03-18 11:43:27 GMT 51.781036 -0.585987 10,175 158 328 -448
2019-03-18 11:43:24 GMT 51.790421 -0.592000 10,225 158 333 -512
2019-03-18 11:43:21 GMT 51.794624 -0.594635 10,225 158 336 -448
2019-03-18 11:43:18 GMT 51.794624 -0.594635 10,275 157 344 -256
2019-03-18 11:43:15 GMT 51.799118 -0.597567 10,275 158 339 -384
2019-03-18 11:43:12 GMT 51.802444 -0.599747 10,275 158 342 -320
2019-03-18 11:43:09 GMT 51.807755 -0.603180 10,300 157 371 -1152
2019-03-18 11:43:06 GMT 51.812222 -0.606079 10,300 158 374 -1856
2019-03-18 11:43:03 GMT 51.815529 -0.608292 10,325 157 350 -384
2019-03-18 11:43:00 GMT 51.820042 -0.611191 10,350 157 355 -384
2019-03-18 11:42:57 GMT 51.830425 -0.618057 10,350 157 361 -576
2019-03-18 11:42:54 GMT 51.836010 -0.621719 10,375 157 361 -512
2019-03-18 11:42:51 GMT 51.836010 -0.621719 10,400 157 365 -704
2019-03-18 11:42:48 GMT 51.840061 -0.624390 10,450 157 371 -1152
2019-03-18 11:42:45 GMT 51.843658 -0.626740 10,450 157 367 -832
2019-03-18 11:42:42 GMT 51.848579 -0.629959 10,575 158 374 -1792
2019-03-18 11:42:39 GMT 51.852539 -0.632530 10,575 158 371 -1280
2019-03-18 11:42:36 GMT 51.857666 -0.635871 10,875 158 373 -1664
2019-03-18 11:42:33 GMT 51.862793 -0.639137 10,775 158 375 -1920
2019-03-18 11:42:30 GMT 51.869389 -0.643463 11,150 152 383 -1664
2019-03-18 11:42:27 GMT 51.872601 -0.645523 10,925 158 376 -1920
2019-03-18 11:42:24 GMT 51.876984 -0.648342 11,025 157 377 -1984
2019-03-18 11:42:21 GMT 51.882656 -0.652084 11,100 157 378 -1984
2019-03-18 11:42:18 GMT 51.886845 -0.654907 11,175 157 378 -2048
2019-03-18 11:42:15 GMT 51.891815 -0.658289 11,400 155 380 -1920
2019-03-18 11:42:11 GMT 51.897785 -0.662633 11,475 155 380 -1856
2019-03-18 11:42:08 GMT 51.903992 -0.667343 11,675 152 383 -1664
2019-03-18 11:42:04 GMT 51.913612 -0.675345 11,725 151 384 -1536
2019-03-18 11:42:01 GMT 51.919479 -0.680838 11,800 149 386 -1472
2019-03-18 11:41:58 GMT 51.919479 -0.680838 11,875 147 387 -1472
2019-03-18 11:41:55 GMT 51.922943 -0.684357 11,875 145 388 -1472
2019-03-18 11:41:52 GMT 51.927254 -0.689157 12,025 141 389 -1408
2019-03-18 11:41:49 GMT 51.935909 -0.700457 12,100 137 389 -1472
2019-03-18 11:41:43 GMT 51.939514 -0.705795 12,200 136 390 -1472
2019-03-18 11:41:40 GMT 51.944801 -0.714190 12,275 134 391 -1408
2019-03-18 11:41:37 GMT 51.948341 -0.719997 12,350 133 393 -1344
2019-03-18 11:41:34 GMT 51.951134 -0.724627 12,425 134 392 -1344
2019-03-18 11:41:31 GMT 51.954758 -0.730743 12,450 133 393 -1344
2019-03-18 11:41:28 GMT 51.959465 -0.738595 12,550 134 393 -1344
2019-03-18 11:41:25 GMT 51.966030 -0.749581 12,775 134 395 -1280
2019-03-18 11:41:19 GMT 51.970127 -0.756409 12,775 134 399 -1216
2019-03-18 11:41:16 GMT 51.975403 -0.765152 12,825 134 398 -1344
2019-03-18 11:41:13 GMT 51.977295 -0.768337 12,850 134 398 -1280
2019-03-18 11:41:10 GMT 51.981670 -0.775556 12,925 134 399 -1216
2019-03-18 11:41:07 GMT 51.985535 -0.781991 13,050 134 400 -1152
2019-03-18 11:41:04 GMT 51.993439 -0.795135 13,075 134 402 -960
2019-03-18 11:41:01 GMT 51.997330 -0.801620 13,175 134 403 -960
2019-03-18 11:40:58 GMT 51.997330 -0.801620 13,250 134 405 -1024
2019-03-18 11:40:55 GMT 52.002777 -0.810776 13,200 134 405 -1024
2019-03-18 11:40:52 GMT 52.005661 -0.815582 13,275 134 407 -1152
2019-03-18 11:40:49 GMT 52.013142 -0.828134 13,400 134 408 -1408
2019-03-18 11:40:46 GMT 52.016418 -0.833664 13,475 133 409 -1408
2019-03-18 11:40:43 GMT 52.021290 -0.841788 13,475 134 410 -1472
2019-03-18 11:40:40 GMT 52.021290 -0.841788 13,550 134 410 -1472
2019-03-18 11:40:34 GMT 52.028503 -0.853958 13,800 134 416 -2048
2019-03-18 11:40:31 GMT 52.033264 -0.861969 13,725 134 413 -1536
2019-03-18 11:40:28 GMT 52.036743 -0.867767 13,775 134 413 -1536
2019-03-18 11:40:25 GMT 52.044563 -0.880868 13,925 134 419 -2304
2019-03-18 11:40:22 GMT 52.044563 -0.880868 13,950 134 415 -1536
2019-03-18 11:40:19 GMT 52.048965 -0.888290 14,050 134 415 -1728
2019-03-18 11:40:16 GMT 52.052338 -0.893816 14,275 134 416 -1792
2019-03-18 11:40:13 GMT 52.056900 -0.901428 14,250 134 416 -1792
2019-03-18 11:40:10 GMT 52.060112 -0.906843 14,275 134 416 -1792
2019-03-18 11:40:07 GMT 52.066303 -0.917123 14,450 134 416 -1920
2019-03-18 11:40:04 GMT 52.069107 -0.921783 14,500 134 416 -1984
2019-03-18 11:40:01 GMT 52.072777 -0.927795 14,650 134 415 -2176
2019-03-18 11:39:58 GMT 52.076385 -0.933838 14,750 134 415 -2368
2019-03-18 11:39:55 GMT 52.080830 -0.941214 14,875 134 415 -2432
2019-03-18 11:39:52 GMT 52.084213 -0.946732 15,000 134 415 -2432
2019-03-18 11:39:49 GMT 52.094971 -0.964508 15,200 134 415 -2368
2019-03-18 11:39:46 GMT 52.094971 -0.964508 15,250 134 415 -2368
2019-03-18 11:39:42 GMT 52.102383 -0.976685 15,425 134 416 -2304
2019-03-18 11:39:39 GMT 52.108429 -0.986710 15,475 138 421 -2368
2019-03-18 11:39:35 GMT 52.108429 -0.986710 15,575 134 416 -2304
2019-03-18 11:39:32 GMT 52.111832 -0.992301 15,875 134 417 -2368
2019-03-18 11:39:29 GMT 52.121002 -1.007525 16,050 134 417 -2368
2019-03-18 11:39:26 GMT 52.121002 -1.007525 16,175 134 418 -2368
2019-03-18 11:39:23 GMT 52.125732 -1.015320 17,375 139 421 -2368
2019-03-18 11:39:20 GMT 52.127239 -1.017805 16,300 134 418 -2368
2019-03-18 11:39:17 GMT 52.132553 -1.026535 16,375 134 419 -2368
2019-03-18 11:39:14 GMT 52.137222 -1.034088 16,500 135 420 -2432
2019-03-18 11:39:11 GMT 52.147678 -1.050528 16,700 136 420 -2368
2019-03-18 11:39:07 GMT 52.147678 -1.050528 16,800 138 421 -2368
2019-03-18 11:39:04 GMT 52.150360 -1.054611 16,925 138 421 -2368
2019-03-18 11:39:01 GMT 52.156219 -1.063004 17,025 139 421 -2304
2019-03-18 11:38:58 GMT 52.160896 -1.069205 17,150 141 421 -2304
2019-03-18 11:38:54 GMT 52.165833 -1.075483 17,300 143 422 -2432
2019-03-18 11:38:50 GMT 52.171600 -1.082535 17,450 143 423 -2368
2019-03-18 11:38:47 GMT 52.177277 -1.089325 17,750 143 423 -2560
2019-03-18 11:38:44 GMT 52.187477 -1.101693 17,775 143 424 -2560
2019-03-18 11:38:41 GMT 52.187477 -1.101693 17,850 143 424 -2624
2019-03-18 11:38:38 GMT 52.192383 -1.107559 18,475 143 424 -2752
2019-03-18 11:38:34 GMT 52.196323 -1.112366 18,125 143 424 -2752
2019-03-18 11:38:31 GMT 52.201492 -1.118622 18,475 143 424 -2688
2019-03-18 11:38:28 GMT 52.211128 -1.130179 18,475 143 424 -2496
2019-03-18 11:38:25 GMT 52.216965 -1.137085 18,825 143 424 -2432
2019-03-18 11:38:22 GMT 52.216965 -1.137085 18,775 144 424 -2368
2019-03-18 11:38:19 GMT 52.220951 -1.141793 19,000 146 426 -1984
2019-03-18 11:38:16 GMT 52.226257 -1.147842 18,950 145 426 -2112
2019-03-18 11:38:12 GMT 52.237988 -1.160313 19,200 157 436 -1856
2019-03-18 11:38:09 GMT 52.237988 -1.160313 19,150 149 429 -1792
2019-03-18 11:38:06 GMT 52.247131 -1.168823 19,500 156 435 -1728
2019-03-18 11:38:03 GMT 52.247131 -1.168823 19,375 153 432 -1728
2019-03-18 11:38:00 GMT 52.253540 -1.174164 19,600 155 434 -1728
2019-03-18 11:37:57 GMT 52.258255 -1.177750 19,475 154 433 -1664
2019-03-18 11:37:54 GMT 52.272110 -1.187544 19,675 157 436 -1856
2019-03-18 11:37:50 GMT 52.272110 -1.187544 19,675 157 436 -1856
2019-03-18 11:37:46 GMT 52.283703 -1.195391 19,950 157 440 -1856
2019-03-18 11:37:43 GMT 52.283703 -1.195391 20,450 157 442 -2048
2019-03-18 11:37:40 GMT 52.291443 -1.200562 20,025 157 441 -1984
2019-03-18 11:37:37 GMT 52.295197 -1.203079 20,425 157 444 -2560
2019-03-18 11:37:34 GMT 52.303528 -1.208649 20,200 157 443 -2240
2019-03-18 11:37:31 GMT 52.306374 -1.210615 20,275 158 443 -1984
2019-03-18 11:37:28 GMT 52.313587 -1.215480 20,550 157 444 -2624
2019-03-18 11:37:22 GMT 52.322891 -1.221695 21,250 157 445 -2368
2019-03-18 11:37:19 GMT 52.331421 -1.227408 20,900 157 445 -2304
2019-03-18 11:37:15 GMT 52.337723 -1.231613 21,150 157 446 -2112
2019-03-18 11:37:12 GMT 52.343243 -1.235256 21,150 157 447 -1856
2019-03-18 11:37:09 GMT 52.349533 -1.239471 21,225 157 447 -1856
2019-03-18 11:37:06 GMT 52.354324 -1.242711 21,350 157 449 -1856
2019-03-18 11:37:03 GMT 52.363167 -1.248596 21,450 157 450 -1920
2019-03-18 11:37:00 GMT 52.366241 -1.250637 21,500 157 450 -1920
2019-03-18 11:36:57 GMT 52.372803 -1.255031 21,600 157 451 -1920
2019-03-18 11:36:54 GMT 52.377087 -1.257935 21,825 157 453 -2176
2019-03-18 11:36:51 GMT 52.384022 -1.262565 21,825 157 454 -2176
2019-03-18 11:36:48 GMT 52.390823 -1.267166 21,900 157 454 -2176
2019-03-18 11:36:45 GMT 52.395660 -1.270412 22,025 157 455 -2176
2019-03-18 11:36:42 GMT 52.401897 -1.274571 22,175 157 456 -2176
2019-03-18 11:36:39 GMT 52.406975 -1.278024 22,200 157 456 -2176
2019-03-18 11:36:36 GMT 52.413803 -1.282578 22,525 157 457 -2176
2019-03-18 11:36:33 GMT 52.419868 -1.286656 22,500 157 457 -2112
2019-03-18 11:36:29 GMT 52.427078 -1.291504 22,700 157 458 -2048
2019-03-18 11:36:26 GMT 52.432983 -1.295547 22,850 157 460 -1984
2019-03-18 11:36:23 GMT 52.438843 -1.299515 22,850 157 461 -1984
2019-03-18 11:36:20 GMT 52.445938 -1.304321 23,025 157 461 -2048
2019-03-18 11:36:17 GMT 52.449875 -1.306992 23,075 157 462 -2112
2019-03-18 11:36:14 GMT 52.456364 -1.311454 23,650 157 463 -2368
2019-03-18 11:36:11 GMT 52.462322 -1.315534 23,250 157 463 -2496
2019-03-18 11:36:08 GMT 52.468002 -1.319427 23,325 157 463 -2688
2019-03-18 11:36:05 GMT 52.481003 -1.328430 23,625 157 462 -3008
2019-03-18 11:35:59 GMT 52.485718 -1.331711 23,825 154 460 -2432
2019-03-18 11:35:56 GMT 52.492584 -1.336487 25,050 155 460 -2816
2019-03-18 11:35:53 GMT 52.495514 -1.338577 24,450 156 460 -2944
2019-03-18 11:35:50 GMT 52.503101 -1.344099 24,275 155 460 -2816
2019-03-18 11:35:47 GMT 52.508331 -1.347961 24,675 148 464 -1920
2019-03-18 11:35:44 GMT 52.521698 -1.358719 24,650 152 461 -1984
2019-03-18 11:35:41 GMT 52.521698 -1.358719 24,650 151 461 -1856
2019-03-18 11:35:38 GMT 52.525261 -1.361912 24,750 149 463 -1792
2019-03-18 11:35:35 GMT 52.532337 -1.368426 24,850 148 464 -1920
2019-03-18 11:35:32 GMT 52.538040 -1.374130 24,925 148 464 -1920
2019-03-18 11:35:29 GMT 52.542755 -1.378937 25,475 147 470 -1664
2019-03-18 11:35:26 GMT 52.549469 -1.385925 25,225 147 466 -1984
2019-03-18 11:35:23 GMT 52.552185 -1.388779 25,225 147 466 -1920
2019-03-18 11:35:20 GMT 52.560410 -1.397304 25,400 147 468 -1792
2019-03-18 11:35:17 GMT 52.564411 -1.401463 25,525 147 470 -1664
2019-03-18 11:35:13 GMT 52.569904 -1.407192 25,475 147 469 -1664
2019-03-18 11:35:10 GMT 52.577263 -1.414804 25,625 147 471 -1728
2019-03-18 11:35:07 GMT 52.587921 -1.425947 25,875 147 473 -2432
2019-03-18 11:35:04 GMT 52.587921 -1.425947 27,550 147 479 -2048
2019-03-18 11:35:01 GMT 52.593246 -1.431580 25,975 147 471 -2816
2019-03-18 11:34:58 GMT 52.599838 -1.438599 26,025 147 472 -2752
2019-03-18 11:34:55 GMT 52.604279 -1.443253 26,150 147 472 -2816
2019-03-18 11:34:52 GMT 52.610458 -1.449814 26,400 147 471 -2688
2019-03-18 11:34:49 GMT 52.615433 -1.455061 26,625 147 471 -2368
2019-03-18 11:34:46 GMT 52.621078 -1.461105 26,700 147 474 -1600
2019-03-18 11:34:43 GMT 52.627491 -1.467852 26,700 147 474 -1600
2019-03-18 11:34:40 GMT 52.633030 -1.473659 26,825 147 472 -1856
2019-03-18 11:34:37 GMT 52.637451 -1.478289 27,000 147 474 -1664
2019-03-18 11:34:34 GMT 52.643143 -1.484299 27,125 147 475 -1600
2019-03-18 11:34:31 GMT 52.649826 -1.491241 27,075 147 476 -1600
2019-03-18 11:34:28 GMT 52.655563 -1.497280 27,125 147 476 -1600
2019-03-18 11:34:25 GMT 52.660950 -1.502914 27,225 147 478 -1984
2019-03-18 11:34:22 GMT 52.665436 -1.507568 27,350 147 484 -1600
2019-03-18 11:34:19 GMT 52.670460 -1.512817 27,400 147 479 -2048
2019-03-18 11:34:16 GMT 52.677582 -1.520272 27,550 147 480 -2048
2019-03-18 11:34:13 GMT 52.683746 -1.526718 27,625 147 481 -1920
2019-03-18 11:34:10 GMT 52.688057 -1.531259 27,700 147 482 -1728
2019-03-18 11:34:06 GMT 52.695549 -1.539106 27,800 147 482 -1792
2019-03-18 11:34:03 GMT 52.702515 -1.546478 27,950 147 483 -1664
2019-03-18 11:34:00 GMT 52.708145 -1.552429 28,050 147 487 -1408
2019-03-18 11:33:57 GMT 52.711750 -1.556213 28,175 147 487 -1408
2019-03-18 11:33:54 GMT 52.718353 -1.563110 28,150 147 486 -1408
2019-03-18 11:33:51 GMT 52.723854 -1.568926 28,300 147 492 -1856
2019-03-18 11:33:48 GMT 52.728790 -1.574105 28,400 147 493 -2176
2019-03-18 11:33:45 GMT 52.741405 -1.587446 28,475 147 491 -1600
2019-03-18 11:33:42 GMT 52.741405 -1.587446 28,550 147 492 -1728
2019-03-18 11:33:39 GMT 52.748295 -1.594744 28,550 147 492 -1856
2019-03-18 11:33:36 GMT 52.753647 -1.600394 28,850 147 494 -2496
2019-03-18 11:33:33 GMT 52.760956 -1.608085 28,850 147 494 -2496
2019-03-18 11:33:30 GMT 52.769428 -1.616952 28,925 147 493 -2432
2019-03-18 11:33:27 GMT 52.776947 -1.624832 29,225 147 493 -2496
2019-03-18 11:33:23 GMT 52.776947 -1.624832 29,575 147 493 -2432
2019-03-18 11:33:20 GMT 52.783672 -1.631862 29,800 147 494 -2176
2019-03-18 11:33:17 GMT 52.796337 -1.645281 29,500 147 494 -2176
2019-03-18 11:33:14 GMT 52.796337 -1.645281 29,550 147 494 -2176
2019-03-18 11:33:11 GMT 52.801315 -1.650617 29,625 147 495 -2240
2019-03-18 11:33:08 GMT 52.806931 -1.656494 29,800 147 494 -2496
2019-03-18 11:33:05 GMT 52.811745 -1.661604 29,825 147 494 -2496
2019-03-18 11:33:02 GMT 52.818260 -1.668431 29,975 147 494 -2368
2019-03-18 11:32:59 GMT 52.823090 -1.673508 30,175 147 494 -1920
2019-03-18 11:32:56 GMT 52.829269 -1.679916 30,250 147 495 -1792
2019-03-18 11:32:52 GMT 52.836788 -1.687814 30,350 147 495 -1856
2019-03-18 11:32:49 GMT 52.843918 -1.695328 30,450 147 502 -1792
2019-03-18 11:32:46 GMT 52.849918 -1.701704 30,475 147 495 -1984
2019-03-18 11:32:43 GMT 52.853577 -1.705551 30,775 147 497 -2112
2019-03-18 11:32:40 GMT 52.864380 -1.716995 30,775 147 497 -2176
2019-03-18 11:32:34 GMT 52.872726 -1.725795 30,975 147 499 -2112
2019-03-18 11:32:31 GMT 52.879120 -1.732635 31,050 147 499 -2048
2019-03-18 11:32:28 GMT 52.883011 -1.736755 31,200 147 500 -1984
2019-03-18 11:32:25 GMT 52.889191 -1.743317 31,200 147 500 -1984
2019-03-18 11:32:22 GMT 52.895416 -1.749954 31,400 147 502 -1728
2019-03-18 11:32:19 GMT 52.908527 -1.763855 31,450 147 502 -1728
2019-03-18 11:32:16 GMT 52.908527 -1.763855 31,625 147 504 -1536
2019-03-18 11:32:13 GMT 52.912628 -1.768188 31,600 147 504 -1536
2019-03-18 11:32:10 GMT 52.919312 -1.775208 31,625 147 504 -1536
2019-03-18 11:32:07 GMT 52.930756 -1.787262 31,775 147 507 -1664
2019-03-18 11:32:04 GMT 52.930756 -1.787262 31,825 147 508 -1792
2019-03-18 11:32:01 GMT 52.942612 -1.799698 32,200 147 508 -1856
2019-03-18 11:31:58 GMT 52.942612 -1.799698 31,975 147 508 -1856
2019-03-18 11:31:55 GMT 52.947582 -1.804975 32,075 147 509 -1856
2019-03-18 11:31:52 GMT 52.954102 -1.811905 32,150 147 509 -1728
2019-03-18 11:31:49 GMT 52.959274 -1.817322 32,225 147 512 -1728
2019-03-18 11:31:46 GMT 52.966625 -1.825143 32,375 147 512 -1728
2019-03-18 11:31:43 GMT 52.972954 -1.831970 32,425 147 512 -1792
2019-03-18 11:31:40 GMT 52.977329 -1.836679 32,500 147 512 -1984
2019-03-18 11:31:37 GMT 52.983902 -1.843719 32,600 147 513 -2176
2019-03-18 11:31:34 GMT 52.991043 -1.851349 32,875 147 513 -2240
2019-03-18 11:31:31 GMT 52.995850 -1.856461 33,050 147 513 -2112
2019-03-18 11:31:28 GMT 53.002796 -1.863988 32,975 147 514 -1984
2019-03-18 11:31:25 GMT 53.015762 -1.877823 33,125 147 515 -1920
2019-03-18 11:31:22 GMT 53.015762 -1.877823 33,175 147 515 -1920
2019-03-18 11:31:19 GMT 53.019745 -1.882095 33,350 147 518 -1920
2019-03-18 11:31:16 GMT 53.027756 -1.890640 33,300 147 516 -1792
2019-03-18 11:31:13 GMT 53.031784 -1.894989 33,350 147 517 -1728
2019-03-18 11:31:10 GMT 53.037781 -1.901398 33,525 147 524 -1472
2019-03-18 11:31:07 GMT 53.043823 -1.907806 33,625 147 520 -2048
2019-03-18 11:31:04 GMT 53.049255 -1.913661 33,675 147 519 -2048
2019-03-18 11:31:01 GMT 53.055305 -1.920096 33,800 147 520 -2048
2019-03-18 11:30:58 GMT 53.063187 -1.928558 34,025 147 520 -2048
2019-03-18 11:30:55 GMT 53.075684 -1.941986 34,050 147 521 -1984
2019-03-18 11:30:52 GMT 53.075684 -1.941986 34,275 147 523 -1472
2019-03-18 11:30:49 GMT 53.079712 -1.946259 35,050 147 528 -1792
2019-03-18 11:30:46 GMT 53.086624 -1.953659 34,275 147 523 -1536
2019-03-18 11:30:43 GMT 53.092712 -1.960220 34,475 147 524 -1472
2019-03-18 11:30:40 GMT 53.098598 -1.966553 34,525 147 528 -1664
2019-03-18 11:30:37 GMT 53.106995 -1.975499 34,425 147 525 -1344
2019-03-18 11:30:34 GMT 53.109833 -1.978559 34,525 147 528 -1600
2019-03-18 11:30:31 GMT 53.118664 -1.987960 34,675 147 529 -1920
2019-03-18 11:30:28 GMT 53.122807 -1.992322 34,700 147 529 -2240
2019-03-18 11:30:25 GMT 53.130020 -2.000061 34,850 147 530 -2432
2019-03-18 11:30:22 GMT 53.136200 -2.006653 35,025 147 531 -2176
2019-03-18 11:30:19 GMT 53.141556 -2.012381 35,750 147 532 -1792
2019-03-18 11:30:16 GMT 53.149841 -2.021170 35,150 147 532 -1792
2019-03-18 11:30:13 GMT 53.155197 -2.026899 35,250 147 532 -1792
2019-03-18 11:30:09 GMT 53.162659 -2.034903 35,350 147 533 -1856
2019-03-18 11:30:05 GMT 53.170757 -2.043538 35,600 147 534 -2176
2019-03-18 11:30:02 GMT 53.177784 -2.051051 35,600 147 537 -1920
2019-03-18 11:29:58 GMT 53.185913 -2.059780 35,875 147 535 -2176
2019-03-18 11:29:55 GMT 53.192963 -2.067313 36,300 147 537 -1920
2019-03-18 11:29:52 GMT 53.196716 -2.071394 36,275 147 552 -3456
2019-03-18 11:29:49 GMT 53.204414 -2.079728 36,025 147 538 -1664
2019-03-18 11:29:46 GMT 53.212372 -2.088291 36,125 147 540 -1472
2019-03-18 11:29:43 GMT 53.218239 -2.094592 36,300 147 543 -1664
2019-03-18 11:29:40 GMT 53.222672 -2.099330 36,225 147 542 -1536
2019-03-18 11:29:37 GMT 53.228760 -2.105901 36,350 147 544 -1792
2019-03-18 11:29:34 GMT 53.234482 -2.111965 36,475 147 546 -2304
2019-03-18 11:29:31 GMT 53.243774 -2.122009 36,450 147 544 -2112
2019-03-18 11:29:28 GMT 53.249268 -2.127895 36,675 147 546 -2368
2019-03-18 11:29:25 GMT 53.253937 -2.132917 36,775 147 546 -2304
2019-03-18 11:29:22 GMT 53.261345 -2.140961 36,850 147 546 -2176
2019-03-18 11:29:19 GMT 53.267899 -2.148063 37,025 147 548 -2176
2019-03-18 11:29:16 GMT 53.274055 -2.154694 37,050 147 548 -2112
2019-03-18 11:29:13 GMT 53.280014 -2.161075 37,075 147 548 -2112
2019-03-18 11:29:10 GMT 53.288315 -2.170035 37,325 147 549 -2176
2019-03-18 11:29:07 GMT 53.292351 -2.174404 38,300 146 548 -2368
2019-03-18 11:29:04 GMT 53.301132 -2.183847 37,425 147 551 -2112
2019-03-18 11:29:01 GMT 53.306454 -2.189591 37,575 147 553 -1984
2019-03-18 11:28:58 GMT 53.312668 -2.196324 37,625 147 552 -1920
2019-03-18 11:28:55 GMT 53.317795 -2.201896 37,675 147 553 -2048
2019-03-18 11:28:52 GMT 53.326401 -2.211155 38,375 147 553 -3136
2019-03-18 11:28:49 GMT 53.332199 -2.217380 38,000 147 553 -3328
2019-03-18 11:28:46 GMT 53.339676 -2.225516 38,300 146 549 -3072
2019-03-18 11:28:43 GMT 53.345467 -2.231759 38,350 146 550 -3456
2019-03-18 11:28:40 GMT 53.350540 -2.237333 38,450 146 550 -3328
2019-03-18 11:28:37 GMT 53.356079 -2.243311 38,975 146 548 -2368
2019-03-18 11:28:34 GMT 53.364136 -2.252116 38,850 146 548 -2560
2019-03-18 11:28:31 GMT 53.370510 -2.258983 38,950 146 548 -2688
2019-03-18 11:28:27 GMT 53.377121 -2.266166 39,075 146 548 -2432
2019-03-18 11:28:24 GMT 53.383896 -2.273542 39,175 146 548 -2432
2019-03-18 11:28:21 GMT 53.390671 -2.280919 39,275 146 548 -2368
2019-03-18 11:28:18 GMT 53.397232 -2.288145 39,475 146 549 -2368
2019-03-18 11:28:15 GMT 53.403191 -2.294689 39,625 146 549 -2368
2019-03-18 11:28:12 GMT 53.410778 -2.303090 39,925 146 549 -2368
2019-03-18 11:28:09 GMT 53.415253 -2.307992 39,825 146 549 -1856
2019-03-18 11:28:05 GMT 53.425827 -2.319685 39,875 146 551 -1344
2019-03-18 11:28:02 GMT 53.432007 -2.326517 39,925 146 552 -1152
2019-03-18 11:27:59 GMT 53.436447 -2.331377 39,975 146 553 -832
2019-03-18 11:27:56 GMT 53.445419 -2.341265 39,975 146 555 -384
2019-03-18 11:27:53 GMT 53.449928 -2.346227 39,975 146 554 -448
2019-03-18 11:27:50 GMT 53.457001 -2.353978 40,000 146 557 0
2019-03-18 11:27:47 GMT 53.462826 -2.360283 40,000 146 558 -64
2019-03-18 11:27:44 GMT 53.470367 -2.368495 40,000 146 557 -64
2019-03-18 11:27:41 GMT 53.474880 -2.373451 40,000 146 558 64
2019-03-18 11:27:38 GMT 53.483959 -2.383306 40,000 146 557 64
2019-03-18 11:27:34 GMT 53.492989 -2.393162 39,975 146 557 64
2019-03-18 11:27:31 GMT 53.499252 -2.400042 39,975 146 558 -64
2019-03-18 11:27:28 GMT 53.503555 -2.404750 39,975 146 558 0
2019-03-18 11:27:25 GMT 53.511936 -2.414003 39,975 146 558 -64
2019-03-18 11:27:22 GMT 53.517990 -2.420627 40,000 146 558 -64
2019-03-18 11:27:19 GMT 53.524460 -2.427736 40,000 146 558 -64
2019-03-18 11:27:16 GMT 53.531113 -2.435120 40,000 146 558 -64
2019-03-18 11:27:13 GMT 53.536285 -2.440770 40,000 146 558 -64
2019-03-18 11:27:10 GMT 53.542740 -2.447911 40,000 146 558 -64
2019-03-18 11:27:07 GMT 53.548370 -2.454110 40,000 146 559 64
2019-03-18 11:27:04 GMT 53.562195 -2.469256 39,975 146 558 0
2019-03-18 11:27:01 GMT 53.562195 -2.469256 39,975 146 559 64
2019-03-18 11:26:57 GMT 53.580975 -2.489938 39,975 146 559 64
2019-03-18 11:26:53 GMT 53.580975 -2.489938 39,975 146 559 0
2019-03-18 11:26:49 GMT 53.588928 -2.498683 39,975 146 559 0
2019-03-18 11:26:46 GMT 53.595840 -2.506295 39,975 146 559 -64
2019-03-18 11:26:43 GMT 53.601013 -2.511945 40,000 146 559 -64
2019-03-18 11:26:40 GMT 53.607513 -2.519087 40,000 146 559 -64
2019-03-18 11:26:37 GMT 53.613327 -2.525482 40,000 146 559 -64
2019-03-18 11:26:34 GMT 53.620880 -2.533840 40,000 146 559 -64
2019-03-18 11:26:31 GMT 53.626270 -2.539781 40,000 146 559 -64
2019-03-18 11:26:28 GMT 53.640095 -2.554968 39,975 146 559 0
2019-03-18 11:26:24 GMT 53.640095 -2.554968 39,975 146 558 64
2019-03-18 11:26:21 GMT 53.649399 -2.565151 39,975 146 558 64
2019-03-18 11:26:18 GMT 53.654572 -2.570879 39,975 146 558 64
2019-03-18 11:26:15 GMT 53.661228 -2.578233 39,975 146 558 0
2019-03-18 11:26:12 GMT 53.667282 -2.584938 39,975 146 558 -64
2019-03-18 11:26:09 GMT 53.676311 -2.594955 39,975 146 557 -64
2019-03-18 11:26:06 GMT 53.681671 -2.600935 39,975 146 557 -64
2019-03-18 11:26:03 GMT 53.687302 -2.607056 40,000 146 558 -64
2019-03-18 11:25:57 GMT 53.698929 -2.619925 40,000 146 557 -64
2019-03-18 11:25:53 GMT 53.708359 -2.630362 40,000 146 557 -64
2019-03-18 11:25:50 GMT 53.715462 -2.638173 39,975 146 557 0
2019-03-18 11:25:47 GMT 53.721268 -2.644645 40,000 146 557 0
2019-03-18 11:25:44 GMT 53.730080 -2.654410 39,975 146 557 0
2019-03-18 11:25:41 GMT 53.734409 -2.659095 40,000 146 557 -64
2019-03-18 11:25:38 GMT 53.742783 -2.668422 39,975 146 556 0
2019-03-18 11:25:35 GMT 53.747498 -2.673680 39,975 146 556 0
2019-03-18 11:25:32 GMT 53.754147 -2.681068 39,975 146 557 -64
2019-03-18 11:25:29 GMT 53.767273 -2.695574 40,000 146 557 -64
2019-03-18 11:25:26 GMT 53.767273 -2.695574 40,000 146 557 -64
2019-03-18 11:25:23 GMT 53.774963 -2.704206 40,000 146 557 0
2019-03-18 11:25:20 GMT 53.785309 -2.715663 39,975 146 557 0
2019-03-18 11:25:14 GMT 53.790894 -2.721863 39,975 146 557 -64
2019-03-18 11:25:11 GMT 53.808708 -2.741735 40,000 146 556 -64
2019-03-18 11:25:07 GMT 53.808708 -2.741735 40,000 146 557 -64
2019-03-18 11:25:04 GMT 53.814713 -2.748440 40,000 146 557 -64
2019-03-18 11:25:01 GMT 53.820297 -2.754579 40,000 146 557 -64
2019-03-18 11:24:58 GMT 53.827606 -2.762738 40,000 146 556 -64
2019-03-18 11:24:55 GMT 53.832729 -2.768474 40,000 146 556 -64
2019-03-18 11:24:52 GMT 53.839417 -2.775853 40,000 146 557 0
2019-03-18 11:24:49 GMT 53.846043 -2.783257 40,000 146 556 0
2019-03-18 11:24:46 GMT 53.854385 -2.792646 39,975 146 556 0
2019-03-18 11:24:43 GMT 53.859100 -2.797904 39,975 146 556 0
2019-03-18 11:24:40 GMT 53.864475 -2.803856 39,975 146 556 0
2019-03-18 11:24:37 GMT 53.873043 -2.813469 39,975 146 556 0
2019-03-18 11:24:34 GMT 53.878372 -2.819484 39,975 146 555 0
2019-03-18 11:24:31 GMT 53.884781 -2.826704 40,000 146 556 -64
2019-03-18 11:24:28 GMT 53.891850 -2.834634 40,000 146 555 -64
2019-03-18 11:24:25 GMT 53.898273 -2.841824 40,000 146 556 -64
2019-03-18 11:24:19 GMT 53.911743 -2.856916 40,000 146 556 -64
2019-03-18 11:24:16 GMT 53.916000 -2.861703 40,000 146 557 64
2019-03-18 11:24:13 GMT 53.922409 -2.868923 40,000 146 556 -64
2019-03-18 11:24:10 GMT 53.930969 -2.878575 40,000 146 556 64
2019-03-18 11:24:06 GMT 53.938705 -2.887207 39,975 146 557 64
2019-03-18 11:24:03 GMT 53.945984 -2.895368 40,000 146 557 64
2019-03-18 11:24:00 GMT 53.951981 -2.902117 39,975 146 557 64
2019-03-18 11:23:57 GMT 53.957108 -2.907846 39,975 146 557 64
2019-03-18 11:23:54 GMT 53.962891 -2.914366 39,975 146 557 64
2019-03-18 11:23:51 GMT 53.969971 -2.922285 39,975 146 557 0
2019-03-18 11:23:48 GMT 53.977924 -2.931249 39,975 146 557 0
2019-03-18 11:23:45 GMT 53.982422 -2.936332 39,975 146 557 -64
2019-03-18 11:23:42 GMT 53.991238 -2.946194 40,000 146 558 -128
2019-03-18 11:23:39 GMT 53.996567 -2.952262 40,000 146 558 -128
2019-03-18 11:23:36 GMT 54.003670 -2.960250 40,000 146 558 -64
2019-03-18 11:23:33 GMT 54.006866 -2.963876 40,000 146 558 -64
2019-03-18 11:23:30 GMT 54.016342 -2.974470 40,000 146 558 -64
2019-03-18 11:23:27 GMT 54.021927 -2.980826 40,000 146 558 -64
2019-03-18 11:23:24 GMT 54.029411 -2.989331 39,975 146 558 0
2019-03-18 11:23:20 GMT 54.039093 -3.000209 40,000 146 558 64
2019-03-18 11:23:17 GMT 54.043564 -3.005326 39,975 146 558 0
2019-03-18 11:23:13 GMT 54.051956 -3.014805 39,975 146 558 0
2019-03-18 11:23:10 GMT 54.066746 -3.031580 39,975 146 558 0
2019-03-18 11:23:07 GMT 54.066746 -3.031580 39,975 146 558 0
2019-03-18 11:23:04 GMT 54.072098 -3.037720 40,000 146 559 -64
2019-03-18 11:23:01 GMT 54.078293 -3.044748 40,000 146 559 -64
2019-03-18 11:22:58 GMT 54.085831 -3.053258 39,975 146 558 -64
2019-03-18 11:22:55 GMT 54.090958 -3.059143 39,975 146 559 -64
2019-03-18 11:22:52 GMT 54.096542 -3.065421 40,000 146 559 -64
2019-03-18 11:22:48 GMT 54.105804 -3.075930 40,000 146 561 -64
2019-03-18 11:22:45 GMT 54.111389 -3.082231 40,000 146 561 -64
2019-03-18 11:22:42 GMT 54.128860 -3.101990 40,000 146 561 -64
2019-03-18 11:22:38 GMT 54.128860 -3.101990 40,000 146 561 -64
2019-03-18 11:22:35 GMT 54.141186 -3.115917 40,000 146 561 -64
2019-03-18 11:22:32 GMT 54.141186 -3.115917 40,000 146 561 0
2019-03-18 11:22:28 GMT 54.150635 -3.126741 40,000 146 561 64
2019-03-18 11:22:25 GMT 54.155849 -3.132558 39,975 146 562 0
2019-03-18 11:22:22 GMT 54.161434 -3.138939 40,000 146 562 -64
2019-03-18 11:22:19 GMT 54.167904 -3.146290 39,975 146 561 64
2019-03-18 11:22:16 GMT 54.173908 -3.153157 39,975 146 561 64
2019-03-18 11:22:13 GMT 54.181683 -3.162043 39,975 146 561 64
2019-03-18 11:22:10 GMT 54.185349 -3.166181 39,975 146 561 64
2019-03-18 11:22:07 GMT 54.195045 -3.177230 39,975 146 562 -64
2019-03-18 11:22:04 GMT 54.201935 -3.185147 39,975 146 562 -64
2019-03-18 11:22:01 GMT 54.208191 -3.192235 40,000 146 562 -64
2019-03-18 11:21:58 GMT 54.215103 -3.200160 40,000 146 562 -128
2019-03-18 11:21:55 GMT 54.220688 -3.206595 40,000 146 563 -64
2019-03-18 11:21:52 GMT 54.226093 -3.212774 40,000 146 563 -64
2019-03-18 11:21:48 GMT 54.235592 -3.223679 40,000 146 563 -64
2019-03-18 11:21:44 GMT 54.242294 -3.231315 39,975 146 564 0
2019-03-18 11:21:41 GMT 54.251560 -3.241936 39,975 146 564 0
2019-03-18 11:21:38 GMT 54.255890 -3.246864 39,975 146 563 64
2019-03-18 11:21:35 GMT 54.263901 -3.256034 39,975 146 563 -64
2019-03-18 11:21:32 GMT 54.270355 -3.263410 39,975 146 563 -64
2019-03-18 11:21:29 GMT 54.281158 -3.275784 40,000 146 563 -64
2019-03-18 11:21:26 GMT 54.290012 -3.285994 40,000 146 563 -64
2019-03-18 11:21:23 GMT 54.290012 -3.285994 40,000 146 563 -64
2019-03-18 11:21:20 GMT 54.294525 -3.291132 40,000 146 563 -64
2019-03-18 11:21:17 GMT 54.301647 -3.299311 40,000 146 563 -64
2019-03-18 11:21:13 GMT 54.310913 -3.309954 39,975 146 562 -64
2019-03-18 11:21:10 GMT 54.318035 -3.318121 40,000 146 562 0
2019-03-18 11:21:07 GMT 54.323204 -3.324113 40,000 146 562 0
2019-03-18 11:21:04 GMT 54.340054 -3.343423 39,975 146 562 0
2019-03-18 11:21:00 GMT 54.340054 -3.343423 39,975 146 562 0
2019-03-18 11:20:56 GMT 54.346298 -3.350588 40,000 146 562 0
2019-03-18 11:20:53 GMT 54.353165 -3.358504 40,000 146 562 -64
2019-03-18 11:20:50 GMT 54.361359 -3.367956 40,000 146 562 0
2019-03-18 11:20:47 GMT 54.366119 -3.373449 40,000 146 562 0
2019-03-18 11:20:43 GMT 54.374725 -3.383385 40,000 145 563 -64
2019-03-18 11:20:40 GMT 54.380974 -3.390531 39,975 145 563 -64
2019-03-18 11:20:37 GMT 54.387268 -3.397764 39,975 145 563 -64
2019-03-18 11:20:34 GMT 54.394592 -3.406246 39,975 145 563 -64
2019-03-18 11:20:31 GMT 54.401047 -3.413678 39,975 145 562 -64
2019-03-18 11:20:28 GMT 54.406437 -3.419911 39,975 145 562 -64
2019-03-18 11:20:25 GMT 54.415649 -3.430643 40,000 146 561 0
2019-03-18 11:20:22 GMT 54.428364 -3.445296 40,000 145 562 -64
2019-03-18 11:20:19 GMT 54.428364 -3.445296 40,000 145 562 -64
2019-03-18 11:20:16 GMT 54.432861 -3.450596 40,000 145 562 -64
2019-03-18 11:20:13 GMT 54.441467 -3.460532 40,000 146 561 -64
2019-03-18 11:20:10 GMT 54.447464 -3.467479 40,000 146 561 -64
2019-03-18 11:20:07 GMT 54.452850 -3.473677 40,000 146 561 -64
2019-03-18 11:20:04 GMT 54.459324 -3.481168 40,000 146 561 -64
2019-03-18 11:20:01 GMT 54.465958 -3.488886 40,000 146 561 0
2019-03-18 11:19:58 GMT 54.473938 -3.498064 40,000 146 561 0
2019-03-18 11:19:54 GMT 54.480412 -3.505471 39,975 145 562 -64
2019-03-18 11:19:51 GMT 54.487717 -3.513960 40,000 146 561 0
2019-03-18 11:19:47 GMT 54.495667 -3.523218 40,000 145 561 -64
2019-03-18 11:19:44 GMT 54.501251 -3.529681 39,975 145 561 -64
2019-03-18 11:19:41 GMT 54.510902 -3.540927 40,000 145 561 -64
2019-03-18 11:19:37 GMT 54.516907 -3.547918 40,000 145 561 -64
2019-03-18 11:19:34 GMT 54.525696 -3.558197 40,000 145 561 -64
2019-03-18 11:19:31 GMT 54.531059 -3.564398 40,000 145 561 -64
2019-03-18 11:19:27 GMT 54.538368 -3.572887 40,000 145 561 -64
2019-03-18 11:19:23 GMT 54.548447 -3.584693 39,975 145 561 -64
2019-03-18 11:19:20 GMT 54.555771 -3.593176 39,975 145 561 0
2019-03-18 11:19:17 GMT 54.560898 -3.599234 39,975 145 561 0
2019-03-18 11:19:11 GMT 54.574398 -3.614918 40,000 145 561 -64
2019-03-18 11:19:08 GMT 54.579987 -3.621493 40,000 145 561 -64
2019-03-18 11:19:05 GMT 54.584930 -3.627265 40,000 145 561 -64
2019-03-18 11:19:02 GMT 54.592255 -3.635748 40,000 145 561 -64
2019-03-18 11:18:59 GMT 54.598251 -3.642776 39,975 145 561 0
2019-03-18 11:18:56 GMT 54.604706 -3.650288 40,000 145 562 0
2019-03-18 11:18:53 GMT 54.611115 -3.657801 40,000 145 561 0
2019-03-18 11:18:50 GMT 54.618202 -3.666104 39,975 145 562 0
2019-03-18 11:18:47 GMT 54.623791 -3.672596 39,975 145 562 0
2019-03-18 11:18:44 GMT 54.632584 -3.682843 39,975 145 562 0
2019-03-18 11:18:41 GMT 54.637524 -3.688660 39,975 145 562 -64
2019-03-18 11:18:35 GMT 54.648468 -3.701504 39,975 145 562 -64
2019-03-18 11:18:32 GMT 54.657898 -3.712490 39,975 145 562 -64
2019-03-18 11:18:28 GMT 54.663895 -3.719599 40,000 145 562 -64
2019-03-18 11:18:24 GMT 54.680862 -3.739430 39,975 145 561 0
2019-03-18 11:18:21 GMT 54.680862 -3.739430 40,000 145 562 -64
2019-03-18 11:18:18 GMT 54.686401 -3.746005 40,000 145 562 -64
2019-03-18 11:18:15 GMT 54.692829 -3.753496 40,000 145 562 0
2019-03-18 11:18:12 GMT 54.700790 -3.762817 39,975 145 561 0
2019-03-18 11:18:09 GMT 54.706562 -3.769642 39,975 145 561 0
2019-03-18 11:18:06 GMT 54.712784 -3.776954 39,975 145 561 -64
2019-03-18 11:18:03 GMT 54.720062 -3.785517 39,975 145 561 -64
2019-03-18 11:17:59 GMT 54.727139 -3.793862 39,975 145 562 -64
2019-03-18 11:17:56 GMT 54.734207 -3.802158 40,000 145 562 0
2019-03-18 11:17:53 GMT 54.740204 -3.809186 40,000 145 561 -64
2019-03-18 11:17:50 GMT 54.747711 -3.818082 40,000 145 561 0
2019-03-18 11:17:47 GMT 54.752197 -3.823323 39,975 145 561 64
2019-03-18 11:17:44 GMT 54.760757 -3.833421 39,975 145 561 0
2019-03-18 11:17:41 GMT 54.766987 -3.840804 39,975 145 561 0
2019-03-18 11:17:38 GMT 54.773361 -3.848378 39,975 145 561 0
2019-03-18 11:17:32 GMT 54.784286 -3.861290 39,975 145 561 -64
2019-03-18 11:17:29 GMT 54.792389 -3.870903 40,000 145 561 -64
2019-03-18 11:17:26 GMT 54.798595 -3.878340 40,000 145 560 -64
2019-03-18 11:17:22 GMT 54.812653 -3.895069 40,000 145 561 -64
2019-03-18 11:17:19 GMT 54.812653 -3.895069 40,000 145 561 -64
2019-03-18 11:17:16 GMT 54.818436 -3.901924 40,000 145 561 -64
2019-03-18 11:17:12 GMT 54.829739 -3.915294 40,000 145 560 -64
2019-03-18 11:17:09 GMT 54.835098 -3.921634 40,000 145 560 -64
2019-03-18 11:17:06 GMT 54.843201 -3.931247 40,000 145 560 -64
2019-03-18 11:17:03 GMT 54.846401 -3.935020 40,000 145 560 -64
2019-03-18 11:17:00 GMT 54.851761 -3.941345 40,000 145 560 -64
2019-03-18 11:16:57 GMT 54.859673 -3.950667 39,975 145 560 -64
2019-03-18 11:16:54 GMT 54.867096 -3.959521 40,000 145 560 0
2019-03-18 11:16:51 GMT 54.874149 -3.967896 40,000 145 560 -64
2019-03-18 11:16:48 GMT 54.879456 -3.974223 40,000 145 560 -64
2019-03-18 11:16:45 GMT 54.883507 -3.979048 40,000 145 560 -64
2019-03-18 11:16:42 GMT 54.891815 -3.988926 40,000 145 559 0
2019-03-18 11:16:39 GMT 54.899048 -3.997489 40,000 145 559 0
2019-03-18 11:16:36 GMT 54.906326 -4.006132 40,000 145 559 -64
2019-03-18 11:16:33 GMT 54.911407 -4.012272 40,000 145 559 0
2019-03-18 11:16:29 GMT 54.921158 -4.023985 40,000 144 558 0
2019-03-18 11:16:26 GMT 54.925369 -4.029155 40,000 144 559 64
2019-03-18 11:16:23 GMT 54.931499 -4.036643 39,975 144 558 64
2019-03-18 11:16:20 GMT 54.937786 -4.044384 39,975 144 558 64
2019-03-18 11:16:17 GMT 54.945145 -4.053551 39,975 144 559 0
2019-03-18 11:16:14 GMT 54.950180 -4.059771 40,000 144 559 0
2019-03-18 11:16:11 GMT 54.957478 -4.069020 39,975 143 559 -64
2019-03-18 11:16:08 GMT 54.964134 -4.077509 39,975 143 558 0
2019-03-18 11:16:05 GMT 54.969315 -4.084087 40,000 143 558 -64
2019-03-18 11:16:02 GMT 54.975727 -4.092407 40,000 140 559 -64
2019-03-18 11:15:57 GMT 54.986851 -4.106889 40,000 142 559 -64
2019-03-18 11:15:54 GMT 54.992161 -4.113964 40,000 142 558 -64
2019-03-18 11:15:51 GMT 54.998302 -4.122120 40,000 142 559 -64
2019-03-18 11:15:47 GMT 55.005890 -4.132233 40,000 142 558 0
2019-03-18 11:15:44 GMT 55.012222 -4.140764 40,000 142 559 -64
2019-03-18 11:15:41 GMT 55.018890 -4.149843 40,000 141 559 -64
2019-03-18 11:15:38 GMT 55.024200 -4.157033 39,975 141 558 0
2019-03-18 11:15:34 GMT 55.033447 -4.169877 39,975 140 558 -64
2019-03-18 11:15:31 GMT 55.038300 -4.176582 40,000 140 559 -64
2019-03-18 11:15:28 GMT 55.043472 -4.183933 40,000 140 558 -64
2019-03-18 11:15:25 GMT 55.051025 -4.194758 40,000 140 558 -64
2019-03-18 11:15:19 GMT 55.061893 -4.210677 40,000 139 557 -64
2019-03-18 11:15:16 GMT 55.068550 -4.220581 40,000 138 556 -64
2019-03-18 11:15:13 GMT 55.074188 -4.229090 40,000 139 557 -64
2019-03-18 11:15:10 GMT 55.079956 -4.237895 39,975 138 557 -64
2019-03-18 11:15:06 GMT 55.088242 -4.250627 40,000 138 556 -64
2019-03-18 11:15:03 GMT 55.099640 -4.268108 40,000 138 556 -64
2019-03-18 11:15:00 GMT 55.099640 -4.268108 40,000 138 556 -64
2019-03-18 11:14:57 GMT 55.104443 -4.275513 40,000 138 556 -64
2019-03-18 11:14:53 GMT 55.114033 -4.290411 40,000 138 556 -64
2019-03-18 11:14:50 GMT 55.124043 -4.305808 40,000 138 556 -64
2019-03-18 11:14:47 GMT 55.124043 -4.305808 40,000 138 556 -64
2019-03-18 11:14:44 GMT 55.130932 -4.316545 40,000 138 556 0
2019-03-18 11:14:41 GMT 55.136902 -4.325705 40,000 138 555 0
2019-03-18 11:14:38 GMT 55.147659 -4.342346 40,000 138 556 0
2019-03-18 11:14:35 GMT 55.153427 -4.351232 39,975 138 556 64
2019-03-18 11:14:29 GMT 55.158417 -4.358906 39,975 138 556 0
2019-03-18 11:14:26 GMT 55.165695 -4.370216 39,975 138 555 0
2019-03-18 11:14:23 GMT 55.176273 -4.386541 39,975 138 556 0
2019-03-18 11:14:20 GMT 55.176273 -4.386541 39,975 138 556 0
2019-03-18 11:14:17 GMT 55.182220 -4.395743 39,975 138 555 -64
2019-03-18 11:14:14 GMT 55.187401 -4.403770 40,000 138 556 -64
2019-03-18 11:14:11 GMT 55.194660 -4.415089 39,975 138 555 -64
2019-03-18 11:14:08 GMT 55.199478 -4.422563 40,000 138 555 -64
2019-03-18 11:14:05 GMT 55.204834 -4.430964 40,000 138 555 -64
2019-03-18 11:14:02 GMT 55.209602 -4.438393 40,000 138 555 -64
2019-03-18 11:13:59 GMT 55.216122 -4.448547 40,000 138 556 -64
2019-03-18 11:13:56 GMT 55.228039 -4.467024 40,000 138 556 -64
2019-03-18 11:13:53 GMT 55.228039 -4.467024 40,000 138 556 -64
2019-03-18 11:13:50 GMT 55.235302 -4.478427 40,000 138 556 -64
2019-03-18 11:13:47 GMT 55.239166 -4.484419 40,000 138 556 -64
2019-03-18 11:13:44 GMT 55.252571 -4.505310 40,000 138 556 -64
2019-03-18 11:13:41 GMT 55.252571 -4.505310 40,000 138 556 -64
2019-03-18 11:13:37 GMT 55.267563 -4.528531 40,000 138 557 -64
2019-03-18 11:13:33 GMT 55.267563 -4.528531 40,000 138 556 -64
2019-03-18 11:13:30 GMT 55.273335 -4.537520 40,000 138 556 -64
2019-03-18 11:13:27 GMT 55.277943 -4.544678 40,000 138 556 -64
2019-03-18 11:13:24 GMT 55.284302 -4.554479 40,000 138 556 0
2019-03-18 11:13:21 GMT 55.290024 -4.563446 40,000 138 556 0
2019-03-18 11:13:18 GMT 55.295792 -4.572413 40,000 138 555 0
2019-03-18 11:13:15 GMT 55.301559 -4.581380 40,000 138 555 0
2019-03-18 11:13:12 GMT 55.306137 -4.588569 40,000 138 555 0
2019-03-18 11:13:09 GMT 55.313229 -4.599609 40,000 138 555 -64
2019-03-18 11:13:05 GMT 55.320492 -4.610929 39,975 138 555 0
2019-03-18 11:13:02 GMT 55.326263 -4.619917 39,975 138 555 0
2019-03-18 11:12:59 GMT 55.331989 -4.628906 39,975 138 555 0
2019-03-18 11:12:55 GMT 55.341579 -4.643888 39,975 138 555 0
2019-03-18 11:12:51 GMT 55.346188 -4.651045 40,000 138 555 -64
2019-03-18 11:12:48 GMT 55.354988 -4.664862 39,975 138 555 -64
2019-03-18 11:12:45 GMT 55.357689 -4.669023 39,975 138 556 0
2019-03-18 11:12:39 GMT 55.371838 -4.691245 39,975 138 558 -64
2019-03-18 11:12:36 GMT 55.377411 -4.699967 39,975 138 556 -64
2019-03-18 11:12:33 GMT 55.381058 -4.705644 40,000 138 557 -64
2019-03-18 11:12:30 GMT 55.387756 -4.716204 40,000 138 557 -64
2019-03-18 11:12:27 GMT 55.398880 -4.733653 40,000 138 558 -64
2019-03-18 11:12:24 GMT 55.398880 -4.733653 40,000 138 558 -64
2019-03-18 11:12:21 GMT 55.404427 -4.742348 40,000 138 557 0
2019-03-18 11:12:18 GMT 55.410370 -4.751748 40,000 138 557 -64
2019-03-18 11:12:14 GMT 55.419159 -4.765643 40,000 138 557 -64
2019-03-18 11:12:11 GMT 55.423977 -4.773143 40,000 138 557 0
2019-03-18 11:12:08 GMT 55.430122 -4.782881 40,000 138 557 -64
2019-03-18 11:12:04 GMT 55.438129 -4.795532 39,975 138 557 0
2019-03-18 11:11:59 GMT 55.450607 -4.815174 40,000 138 557 0
2019-03-18 11:11:55 GMT 55.455185 -4.822415 40,000 138 557 0
2019-03-18 11:11:52 GMT 55.460541 -4.830905 39,975 138 557 0
2019-03-18 11:11:49 GMT 55.467407 -4.841808 39,975 138 557 0
2019-03-18 11:11:46 GMT 55.476974 -4.856873 40,000 138 556 0
2019-03-18 11:11:43 GMT 55.482697 -4.865945 40,000 138 556 0
2019-03-18 11:11:37 GMT 55.487473 -4.873552 39,975 137 555 -64
2019-03-18 11:11:33 GMT 55.497208 -4.888916 39,975 138 556 0
2019-03-18 11:11:30 GMT 55.501785 -4.896157 39,975 137 555 0
2019-03-18 11:11:27 GMT 55.508099 -4.906168 39,975 137 555 0
2019-03-18 11:11:23 GMT 55.514008 -4.915550 39,975 137 555 -64
2019-03-18 11:11:20 GMT 55.526344 -4.935179 39,975 137 555 -64
2019-03-18 11:11:17 GMT 55.526344 -4.935179 40,000 137 555 -64
2019-03-18 11:11:14 GMT 55.532444 -4.944792 40,000 137 555 -64
2019-03-18 11:11:11 GMT 55.539093 -4.955417 40,000 137 555 -64
2019-03-18 11:11:08 GMT 55.543671 -4.962658 40,000 137 555 -64
2019-03-18 11:11:05 GMT 55.548782 -4.970884 40,000 138 555 0
2019-03-18 11:11:02 GMT 55.560379 -4.989291 40,000 138 555 0
2019-03-18 11:10:59 GMT 55.560379 -4.989291 40,000 138 555 0
2019-03-18 11:10:56 GMT 55.565914 -4.998007 39,975 137 555 0
2019-03-18 11:10:53 GMT 55.571823 -5.007435 40,000 137 555 0
2019-03-18 11:10:50 GMT 55.577911 -5.017090 39,975 137 555 64
2019-03-18 11:10:47 GMT 55.584908 -5.028305 39,975 137 555 0
2019-03-18 11:10:44 GMT 55.589516 -5.035515 39,975 137 555 0
2019-03-18 11:10:41 GMT 55.595032 -5.044306 40,000 137 554 -64
2019-03-18 11:10:38 GMT 55.601486 -5.054626 40,000 137 555 -64
2019-03-18 11:10:34 GMT 55.610420 -5.068817 40,000 137 555 -64
2019-03-18 11:10:31 GMT 55.614395 -5.075184 40,000 137 555 -64
2019-03-18 11:10:28 GMT 55.619705 -5.083674 40,000 137 555 -64
2019-03-18 11:10:25 GMT 55.631275 -5.102205 40,000 137 554 -64
2019-03-18 11:10:22 GMT 55.631275 -5.102205 40,000 137 555 0
2019-03-18 11:10:19 GMT 55.636955 -5.111303 40,000 137 554 0
2019-03-18 11:10:16 GMT 55.647568 -5.128298 39,975 137 554 0
2019-03-18 11:10:10 GMT 55.655365 -5.140769 39,975 137 554 0
2019-03-18 11:10:07 GMT 55.667084 -5.159579 40,000 137 554 0
2019-03-18 11:10:03 GMT 55.667084 -5.159579 40,000 137 554 -64
2019-03-18 11:10:00 GMT 55.672760 -5.168734 40,000 137 553 -64
2019-03-18 11:09:57 GMT 55.678619 -5.178165 40,000 137 553 -64
2019-03-18 11:09:54 GMT 55.683746 -5.186296 40,000 137 553 -64
2019-03-18 11:09:51 GMT 55.690201 -5.196700 40,000 137 553 -64
2019-03-18 11:09:48 GMT 55.696609 -5.207020 40,000 137 553 -64
2019-03-18 11:09:45 GMT 55.701336 -5.214643 40,000 137 553 -64
2019-03-18 11:09:41 GMT 55.710617 -5.229492 40,000 137 554 0
2019-03-18 11:09:38 GMT 55.716091 -5.238333 40,000 137 554 0
2019-03-18 11:09:35 GMT 55.721027 -5.246315 40,000 137 554 0
2019-03-18 11:09:31 GMT 55.727825 -5.257215 39,975 137 553 0
2019-03-18 11:09:28 GMT 55.732758 -5.265198 40,000 137 553 0
2019-03-18 11:09:25 GMT 55.739136 -5.275497 39,975 137 553 0
2019-03-18 11:09:22 GMT 55.749702 -5.292664 40,000 137 554 -64
2019-03-18 11:09:19 GMT 55.749702 -5.292664 40,000 137 554 0
2019-03-18 11:09:16 GMT 55.755756 -5.302448 40,000 137 554 0
2019-03-18 11:09:13 GMT 55.761246 -5.311307 40,000 137 554 0
2019-03-18 11:09:10 GMT 55.768387 -5.322876 40,000 137 554 -64
2019-03-18 11:09:07 GMT 55.773285 -5.330866 39,975 137 554 0
2019-03-18 11:09:01 GMT 55.784431 -5.348883 40,000 137 554 -64
2019-03-18 11:08:58 GMT 55.790855 -5.359354 40,000 137 554 -64
2019-03-18 11:08:55 GMT 55.795044 -5.366049 40,000 137 554 -64
2019-03-18 11:08:52 GMT 55.803543 -5.379805 39,975 137 555 0
2019-03-18 11:08:48 GMT 55.808121 -5.387213 39,975 137 555 0
2019-03-18 11:08:45 GMT 55.813992 -5.396690 40,000 137 555 0
2019-03-18 11:08:42 GMT 55.819672 -5.405874 40,000 137 555 0
2019-03-18 11:08:38 GMT 55.827633 -5.418749 39,975 137 556 0
2019-03-18 11:08:35 GMT 55.834671 -5.430076 39,975 137 556 0
2019-03-18 11:08:32 GMT 55.838470 -5.436235 39,975 137 556 0
2019-03-18 11:08:29 GMT 55.845291 -5.447304 39,975 137 557 0
2019-03-18 11:08:26 GMT 55.849823 -5.454629 39,975 137 557 0
2019-03-18 11:08:23 GMT 55.857788 -5.467613 40,000 137 557 -64
2019-03-18 11:08:20 GMT 55.861755 -5.474110 39,975 137 557 -64
2019-03-18 11:08:17 GMT 55.866486 -5.481762 40,000 137 557 -64
2019-03-18 11:08:14 GMT 55.873161 -5.492563 39,975 137 557 -64
2019-03-18 11:08:11 GMT 55.879631 -5.503035 40,000 137 558 -64
2019-03-18 11:08:08 GMT 55.885483 -5.512640 39,975 137 557 -64
2019-03-18 11:08:05 GMT 55.890987 -5.521660 39,975 136 558 -64
2019-03-18 11:08:02 GMT 55.896423 -5.530701 39,975 136 557 -64
2019-03-18 11:07:59 GMT 55.901093 -5.538568 39,975 136 557 -64
2019-03-18 11:07:56 GMT 55.908539 -5.551186 40,000 136 557 -64
2019-03-18 11:07:53 GMT 55.912811 -5.558499 40,000 136 558 -64
2019-03-18 11:07:49 GMT 55.920410 -5.571527 40,000 135 557 -64
2019-03-18 11:07:46 GMT 55.926086 -5.581471 40,000 135 557 -64
2019-03-18 11:07:43 GMT 55.931213 -5.590460 40,000 135 557 -64
2019-03-18 11:07:40 GMT 55.938492 -5.603360 40,000 134 557 0
2019-03-18 11:07:37 GMT 55.941963 -5.609550 40,000 134 557 -64
2019-03-18 11:07:34 GMT 55.947556 -5.619590 39,975 134 557 0
2019-03-18 11:07:31 GMT 55.952957 -5.629411 39,975 134 556 -64
2019-03-18 11:07:27 GMT 55.961700 -5.645514 39,975 133 555 -64
2019-03-18 11:07:21 GMT 55.970875 -5.662680 40,000 133 555 -64
2019-03-18 11:07:18 GMT 55.975983 -5.672358 40,000 133 555 -64
2019-03-18 11:07:15 GMT 55.981201 -5.682345 40,000 132 554 0
2019-03-18 11:07:09 GMT 55.991272 -5.701904 40,000 132 554 -64
2019-03-18 11:07:06 GMT 55.995758 -5.710643 39,975 132 554 -64
2019-03-18 11:07:03 GMT 56.001083 -5.721130 40,000 132 554 -64
2019-03-18 11:07:00 GMT 56.006950 -5.732546 39,975 132 554 -64
2019-03-18 11:06:56 GMT 56.013840 -5.746107 40,000 132 555 -64
2019-03-18 11:06:53 GMT 56.020569 -5.759250 40,000 132 555 -64
2019-03-18 11:06:50 GMT 56.024872 -5.767736 40,000 132 555 -64
2019-03-18 11:06:47 GMT 56.034348 -5.786299 40,000 132 555 -64
2019-03-18 11:06:44 GMT 56.034348 -5.786299 40,000 132 555 -64
2019-03-18 11:06:41 GMT 56.039841 -5.797119 40,000 132 555 -64
2019-03-18 11:06:38 GMT 56.046566 -5.810394 40,000 132 555 -64
2019-03-18 11:06:35 GMT 56.050011 -5.817175 40,000 132 556 -64
2019-03-18 11:06:32 GMT 56.059647 -5.836143 40,000 132 556 0
2019-03-18 11:06:29 GMT 56.059647 -5.836143 40,000 132 556 -64
2019-03-18 11:06:25 GMT 56.066212 -5.849018 40,000 132 556 0
2019-03-18 11:06:22 GMT 56.078110 -5.872442 39,975 132 556 64
2019-03-18 11:06:19 GMT 56.078110 -5.872442 40,000 132 556 64
2019-03-18 11:06:14 GMT 56.086395 -5.888755 40,000 132 556 0
2019-03-18 11:06:11 GMT 56.091202 -5.898243 39,975 132 556 -64
2019-03-18 11:06:08 GMT 56.095688 -5.907066 39,975 132 556 0
2019-03-18 11:06:04 GMT 56.108620 -5.932531 39,975 132 556 0
2019-03-18 11:06:01 GMT 56.108620 -5.932531 39,975 132 555 -64
2019-03-18 11:05:58 GMT 56.113091 -5.941458 39,975 132 556 -64
2019-03-18 11:05:53 GMT 56.123932 -5.962913 39,975 132 556 -64
2019-03-18 11:05:50 GMT 56.129292 -5.973473 40,000 132 556 -64
2019-03-18 11:05:47 GMT 56.133759 -5.982313 40,000 132 556 -64
2019-03-18 11:05:44 GMT 56.137531 -5.989866 40,000 132 557 -64
2019-03-18 11:05:41 GMT 56.142517 -5.999784 39,975 132 557 -64
2019-03-18 11:05:38 GMT 56.148563 -6.011753 40,000 132 557 -64
2019-03-18 11:05:34 GMT 56.154282 -6.023005 39,975 132 559 0
2019-03-18 11:05:30 GMT 56.164112 -6.042566 39,975 132 559 64
2019-03-18 11:05:24 GMT 56.172226 -6.058627 39,975 132 558 -64
2019-03-18 11:05:21 GMT 56.178131 -6.070279 39,975 132 558 -64
2019-03-18 11:05:18 GMT 56.183990 -6.081931 39,975 132 558 -64
2019-03-18 11:05:15 GMT 56.188110 -6.090171 39,975 131 559 -64
2019-03-18 11:05:12 GMT 56.198456 -6.110812 39,975 131 559 -64
2019-03-18 11:05:06 GMT 56.202423 -6.118698 40,000 131 559 -64
2019-03-18 11:05:03 GMT 56.213608 -6.141025 40,000 132 558 -64
2019-03-18 11:05:00 GMT 56.213608 -6.141025 40,000 132 558 -64
2019-03-18 11:04:57 GMT 56.219322 -6.152430 40,000 132 558 -64
2019-03-18 11:04:54 GMT 56.223465 -6.160669 40,000 132 558 -64
2019-03-18 11:04:51 GMT 56.231052 -6.175776 40,000 132 558 -64
2019-03-18 11:04:45 GMT 56.240845 -6.195374 40,000 132 558 0
2019-03-18 11:04:41 GMT 56.247578 -6.208735 40,000 131 557 0
2019-03-18 11:04:38 GMT 56.252930 -6.219427 39,975 131 557 0
2019-03-18 11:04:34 GMT 56.258057 -6.229664 40,000 132 557 -64
2019-03-18 11:04:31 GMT 56.263916 -6.241400 39,975 131 556 0
2019-03-18 11:04:28 GMT 56.274216 -6.261957 39,975 131 556 -64
2019-03-18 11:04:22 GMT 56.278336 -6.270197 39,975 131 556 -64
2019-03-18 11:04:19 GMT 56.284195 -6.281849 39,975 131 555 -64
2019-03-18 11:04:16 GMT 56.290176 -6.293879 39,975 131 555 -64
2019-03-18 11:04:13 GMT 56.294769 -6.303156 40,000 131 555 -64
2019-03-18 11:04:10 GMT 56.305210 -6.324091 40,000 131 554 -64
2019-03-18 11:04:03 GMT 56.311031 -6.335678 40,000 131 554 -64
2019-03-18 11:04:00 GMT 56.316971 -6.347684 40,000 131 554 -64
2019-03-18 11:03:57 GMT 56.322098 -6.358004 40,000 131 553 0
2019-03-18 11:03:53 GMT 56.329090 -6.372070 40,000 131 553 0
2019-03-18 11:03:50 GMT 56.334366 -6.382640 40,000 131 553 0
2019-03-18 11:03:47 GMT 56.339615 -6.393270 39,975 131 552 -64
2019-03-18 11:03:44 GMT 56.343712 -6.401510 39,975 131 551 0
2019-03-18 11:03:41 GMT 56.348133 -6.410437 40,000 131 552 0
2019-03-18 11:03:38 GMT 56.354050 -6.422341 40,000 131 551 0
2019-03-18 11:03:35 GMT 56.360981 -6.436443 39,975 131 551 0
2019-03-18 11:03:32 GMT 56.365730 -6.445971 39,975 131 551 0
2019-03-18 11:03:27 GMT 56.374695 -6.464122 39,975 131 551 0
2019-03-18 11:03:24 GMT 56.377880 -6.470690 40,000 131 551 0
2019-03-18 11:03:21 GMT 56.383118 -6.481268 39,975 131 551 0
2019-03-18 11:03:17 GMT 56.390404 -6.496010 40,000 131 551 0
2019-03-18 11:03:14 GMT 56.395294 -6.505904 39,975 131 551 -64
2019-03-18 11:03:11 GMT 56.401016 -6.517556 40,000 131 551 -64
2019-03-18 11:03:07 GMT 56.406601 -6.528883 40,000 131 551 0
2019-03-18 11:03:04 GMT 56.412327 -6.540470 40,000 131 551 0
2019-03-18 11:03:00 GMT 56.418705 -6.553516 40,000 131 551 0
2019-03-18 11:02:57 GMT 56.423454 -6.563129 39,975 131 551 0
2019-03-18 11:02:54 GMT 56.430202 -6.576777 40,000 131 550 -64
2019-03-18 11:02:50 GMT 56.435394 -6.587386 40,000 131 550 0
2019-03-18 11:02:47 GMT 56.441654 -6.600122 39,975 131 550 -64
2019-03-18 11:02:43 GMT 56.447056 -6.611023 40,000 131 550 -64
2019-03-18 11:02:40 GMT 56.453434 -6.624069 39,975 131 550 0
2019-03-18 11:02:37 GMT 56.457687 -6.632663 39,975 131 550 -64
2019-03-18 11:02:33 GMT 56.464417 -6.646396 39,975 131 550 -64
2019-03-18 11:02:29 GMT 56.471146 -6.660129 39,975 131 550 -64
2019-03-18 11:02:26 GMT 56.474987 -6.668015 40,000 131 550 -64
2019-03-18 11:02:22 GMT 56.481537 -6.681435 40,000 131 550 0
2019-03-18 11:02:19 GMT 56.488811 -6.696167 40,000 131 550 -64
2019-03-18 11:02:16 GMT 56.492863 -6.704407 40,000 131 550 -64
2019-03-18 11:02:12 GMT 56.505993 -6.731186 40,000 131 550 0
2019-03-18 11:02:08 GMT 56.505993 -6.731186 40,000 131 550 -64
2019-03-18 11:02:04 GMT 56.513348 -6.746292 39,975 131 550 -64
2019-03-18 11:02:00 GMT 56.519772 -6.759338 39,975 131 551 -64
2019-03-18 11:01:56 GMT 56.527542 -6.775131 39,975 131 551 -64
2019-03-18 11:01:52 GMT 56.533920 -6.788177 40,000 131 551 -64
2019-03-18 11:01:49 GMT 56.536949 -6.794443 39,975 131 550 -64
2019-03-18 11:01:46 GMT 56.547913 -6.816767 40,000 131 550 -64
2019-03-18 11:01:40 GMT 56.554127 -6.829462 40,000 131 550 -64
2019-03-18 11:01:37 GMT 56.558502 -6.838474 39,975 131 550 0
2019-03-18 11:01:33 GMT 56.570232 -6.862593 40,000 131 550 -64
2019-03-18 11:01:30 GMT 56.570232 -6.862593 40,000 131 549 -64
2019-03-18 11:01:27 GMT 56.575790 -6.873946 40,000 131 550 -64
2019-03-18 11:01:23 GMT 56.582153 -6.887096 40,000 131 549 -64
2019-03-18 11:01:20 GMT 56.585861 -6.894670 40,000 131 549 -64
2019-03-18 11:01:17 GMT 56.596573 -6.916752 40,000 131 549 -64
2019-03-18 11:01:14 GMT 56.596573 -6.916752 40,000 131 549 -64
2019-03-18 11:01:10 GMT 56.604584 -6.933317 39,975 131 549 -64
2019-03-18 11:01:04 GMT 56.613758 -6.952308 40,000 131 549 -64
2019-03-18 11:01:00 GMT 56.620090 -6.965421 40,000 131 549 -64
2019-03-18 11:00:57 GMT 56.624790 -6.975078 40,000 131 549 -64
2019-03-18 11:00:54 GMT 56.630264 -6.986446 40,000 131 547 0
2019-03-18 11:00:50 GMT 56.637127 -7.000595 40,000 131 547 64
2019-03-18 11:00:47 GMT 56.641785 -7.010252 39,975 131 547 64
2019-03-18 11:00:44 GMT 56.647465 -7.021947 40,000 131 547 0
2019-03-18 11:00:40 GMT 56.654774 -7.037098 39,975 131 547 0
2019-03-18 11:00:37 GMT 56.666782 -7.061994 40,000 131 547 0
2019-03-18 11:00:33 GMT 56.666782 -7.061994 39,975 131 548 -64
2019-03-18 11:00:29 GMT 56.671764 -7.072360 40,000 131 548 0
2019-03-18 11:00:26 GMT 56.676094 -7.081397 40,000 131 548 0
2019-03-18 11:00:22 GMT 56.682751 -7.095219 40,000 131 548 -64
2019-03-18 11:00:19 GMT 56.692757 -7.115951 39,975 131 549 0
2019-03-18 11:00:13 GMT 56.698242 -7.127380 39,975 131 549 0
2019-03-18 11:00:09 GMT 56.710075 -7.152011 40,000 131 549 -64
2019-03-18 11:00:02 GMT 56.715755 -7.163883 40,000 131 549 -64
2019-03-18 10:59:59 GMT 56.721107 -7.174958 40,000 131 549 -64
2019-03-18 10:59:56 GMT 56.726788 -7.186742 40,000 131 549 -64
2019-03-18 10:59:53 GMT 56.732620 -7.198963 40,000 131 550 0
2019-03-18 10:59:48 GMT 56.741684 -7.217760 40,000 131 550 -64
2019-03-18 10:59:45 GMT 56.744659 -7.224026 39,975 131 551 0
2019-03-18 10:59:42 GMT 56.750202 -7.235472 40,000 131 551 0
2019-03-18 10:59:38 GMT 56.758392 -7.252522 39,975 131 550 -64
2019-03-18 10:59:35 GMT 56.761047 -7.258101 40,000 131 551 -64
2019-03-18 10:59:32 GMT 56.766544 -7.269671 40,000 131 551 -64
2019-03-18 10:59:29 GMT 56.772079 -7.281189 40,000 131 551 -64
2019-03-18 10:59:25 GMT 56.778603 -7.294745 40,000 131 551 0
2019-03-18 10:59:22 GMT 56.783752 -7.305651 40,000 131 551 -64
2019-03-18 10:59:18 GMT 56.790436 -7.319555 40,000 130 552 -64
2019-03-18 10:59:15 GMT 56.795593 -7.330450 40,000 130 551 0
2019-03-18 10:59:12 GMT 56.801598 -7.343031 40,000 130 551 0
2019-03-18 10:59:09 GMT 56.805771 -7.351828 39,975 130 551 0
2019-03-18 10:59:05 GMT 56.811447 -7.363758 39,975 130 552 0
2019-03-18 10:59:01 GMT 56.818451 -7.378435 39,975 130 552 -64
2019-03-18 10:58:57 GMT 56.825943 -7.394242 39,975 130 552 -64
2019-03-18 10:58:54 GMT 56.830273 -7.403368 39,975 130 552 -64
2019-03-18 10:58:49 GMT 56.838501 -7.420578 39,975 130 552 0
2019-03-18 10:58:45 GMT 56.845680 -7.435706 40,000 130 553 0
2019-03-18 10:58:41 GMT 56.853561 -7.452250 39,975 130 554 0
2019-03-18 10:58:37 GMT 56.859741 -7.465299 40,000 130 554 -64
2019-03-18 10:58:34 GMT 56.863907 -7.474136 40,000 130 554 -64
2019-03-18 10:58:30 GMT 56.870270 -7.487526 40,000 130 554 -64
2019-03-18 10:58:26 GMT 56.881989 -7.512245 39,975 130 554 -64
2019-03-18 10:58:19 GMT 56.889359 -7.527781 40,000 130 555 -64
2019-03-18 10:58:15 GMT 56.896191 -7.542291 40,000 130 555 -64
2019-03-18 10:58:12 GMT 56.900711 -7.551813 40,000 130 555 -64
2019-03-18 10:58:09 GMT 56.904739 -7.560310 40,000 130 555 -64
2019-03-18 10:58:06 GMT 56.910461 -7.572412 39,975 130 555 0
2019-03-18 10:58:03 GMT 56.916302 -7.584819 40,000 130 555 -64
2019-03-18 10:58:00 GMT 56.920532 -7.593613 39,975 130 555 -64
2019-03-18 10:57:57 GMT 56.927216 -7.607775 40,000 130 555 -64
2019-03-18 10:57:54 GMT 56.930557 -7.614899 40,000 130 555 -64
2019-03-18 10:57:51 GMT 56.934586 -7.623396 40,000 130 555 -64
2019-03-18 10:57:48 GMT 56.940262 -7.635498 40,000 130 555 -64
2019-03-18 10:57:43 GMT 56.948959 -7.653952 40,000 130 555 -64
2019-03-18 10:57:40 GMT 56.954800 -7.666419 40,000 130 555 -64
2019-03-18 10:57:34 GMT 56.964340 -7.686739 40,000 130 556 0
2019-03-18 10:57:31 GMT 56.969376 -7.697382 40,000 130 556 0
2019-03-18 10:57:28 GMT 56.973888 -7.706998 40,000 130 556 0
2019-03-18 10:57:23 GMT 56.982742 -7.725878 39,975 130 556 0
2019-03-18 10:57:18 GMT 56.991119 -7.743645 40,000 130 556 0
2019-03-18 10:57:13 GMT 56.999451 -7.761497 40,000 130 555 -64
2019-03-18 10:57:08 GMT 57.008289 -7.780447 39,975 130 556 0
2019-03-18 10:57:04 GMT 57.014294 -7.793294 39,975 130 556 0
2019-03-18 10:57:01 GMT 57.020626 -7.806849 40,000 130 556 -64
2019-03-18 10:56:57 GMT 57.025654 -7.817570 40,000 130 556 0
2019-03-18 10:56:53 GMT 57.032963 -7.833252 40,000 130 555 -64
2019-03-18 10:56:50 GMT 57.038132 -7.844324 40,000 130 555 0
2019-03-18 10:56:46 GMT 57.043297 -7.855402 40,000 130 555 0
2019-03-18 10:56:43 GMT 57.049805 -7.869387 39,975 130 555 0
2019-03-18 10:56:40 GMT 57.054653 -7.879678 39,975 130 555 -64
2019-03-18 10:56:36 GMT 57.060791 -7.892904 40,000 130 555 0
2019-03-18 10:56:32 GMT 57.067318 -7.906878 40,000 130 555 -64
2019-03-18 10:56:29 GMT 57.071457 -7.915821 39,975 130 555 -64
2019-03-18 10:56:26 GMT 57.084732 -7.944403 40,000 130 555 -64
2019-03-18 10:56:22 GMT 57.084732 -7.944403 40,000 130 555 -64
2019-03-18 10:56:18 GMT 57.092548 -7.961278 40,000 130 555 0
2019-03-18 10:56:15 GMT 57.095856 -7.968455 39,975 130 555 0
2019-03-18 10:56:11 GMT 57.101349 -7.980280 40,000 130 555 0
2019-03-18 10:56:07 GMT 57.108627 -7.995987 39,975 130 555 -64
2019-03-18 10:56:02 GMT 57.117920 -8.016071 39,975 130 555 -128
2019-03-18 10:55:59 GMT 57.122910 -8.026800 40,000 130 555 -64
2019-03-18 10:55:56 GMT 57.126392 -8.034373 40,000 130 555 0
2019-03-18 10:55:51 GMT 57.135376 -8.053687 40,000 130 555 -64
2019-03-18 10:55:48 GMT 57.140358 -8.064408 40,000 130 555 0
2019-03-18 10:55:44 GMT 57.146969 -8.078761 40,000 130 555 -64
2019-03-18 10:55:41 GMT 57.152802 -8.091345 40,000 130 555 -64
2019-03-18 10:55:38 GMT 57.157425 -8.101387 40,000 130 555 64
2019-03-18 10:55:35 GMT 57.169544 -8.127579 39,975 130 555 64
2019-03-18 10:55:30 GMT 57.169544 -8.127579 39,975 130 555 -128
2019-03-18 10:55:26 GMT 57.177505 -8.144856 39,975 130 555 0
2019-03-18 10:55:23 GMT 57.181789 -8.154248 39,975 130 555 -64
2019-03-18 10:55:20 GMT 57.186310 -8.163958 39,975 130 555 -64
2019-03-18 10:55:14 GMT 57.196407 -8.185878 40,000 130 556 -64
2019-03-18 10:55:10 GMT 57.204041 -8.202446 40,000 130 556 -64
2019-03-18 10:55:05 GMT 57.212330 -8.220520 40,000 130 556 -64
2019-03-18 10:55:00 GMT 57.220093 -8.237514 40,000 130 556 -64
2019-03-18 10:54:55 GMT 57.229065 -8.256998 40,000 130 556 0
2019-03-18 10:54:49 GMT 57.237350 -8.275023 40,000 130 556 0
2019-03-18 10:54:45 GMT 57.245800 -8.293437 39,975 130 556 -64
2019-03-18 10:54:39 GMT 57.254410 -8.312220 39,975 130 556 -64
2019-03-18 10:54:34 GMT 57.263168 -8.331413 39,975 130 555 -64
2019-03-18 10:54:29 GMT 57.270813 -8.348064 40,000 130 555 -64
2019-03-18 10:54:24 GMT 57.280701 -8.369780 39,975 130 555 0
2019-03-18 10:54:19 GMT 57.287659 -8.385057 39,975 130 556 0
2019-03-18 10:54:12 GMT 57.304825 -8.422737 40,000 130 557 -64
2019-03-18 10:54:09 GMT 57.304825 -8.422737 40,000 130 557 -64
2019-03-18 10:54:02 GMT 57.315765 -8.446770 39,975 130 557 0
2019-03-18 10:53:59 GMT 57.321541 -8.459473 39,975 130 557 -64
2019-03-18 10:53:49 GMT 57.338608 -8.496981 40,000 130 559 -64
2019-03-18 10:53:42 GMT 57.349377 -8.520783 39,975 129 559 -64
2019-03-18 10:53:38 GMT 57.356033 -8.535402 40,000 130 560 -64
2019-03-18 10:53:31 GMT 57.367126 -8.559895 40,000 130 560 -64
2019-03-18 10:53:28 GMT 57.372757 -8.572340 39,975 129 560 0
2019-03-18 10:53:18 GMT 57.390701 -8.611994 39,975 129 562 0
2019-03-18 10:53:07 GMT 57.407570 -8.649164 40,000 129 562 -64
2019-03-18 10:52:56 GMT 57.425674 -8.689413 39,975 129 563 -64
2019-03-18 10:52:47 GMT 57.441971 -8.725805 40,000 129 564 -64
2019-03-18 10:52:35 GMT 57.460171 -8.766292 39,975 129 566 -64
2019-03-18 10:52:24 GMT 57.478729 -8.807688 39,975 129 567 0
2019-03-18 10:52:16 GMT 57.494015 -8.841602 39,975 129 568 0
2019-03-18 10:52:06 GMT 57.508774 -8.874561 39,975 129 569 -64
2019-03-18 10:51:56 GMT 57.526554 -8.914342 39,975 129 569 -64
2019-03-18 10:51:46 GMT 57.543137 -8.951540 40,000 129 568 -64
2019-03-18 10:51:36 GMT 57.560028 -8.989474 40,000 129 569 -64
2019-03-18 10:51:26 GMT 57.576920 -9.027586 40,000 129 569 0
2019-03-18 10:51:15 GMT 57.594151 -9.066467 40,000 129 570 0
2019-03-18 10:51:05 GMT 57.611023 -9.104576 40,000 129 569 0
2019-03-18 10:50:55 GMT 57.627899 -9.142751 39,975 129 569 -64
2019-03-18 10:50:44 GMT 57.646290 -9.184393 40,000 129 569 -64
2019-03-18 10:50:34 GMT 57.662300 -9.220719 40,000 129 570 -64
2019-03-18 10:50:24 GMT 57.679825 -9.260530 39,975 129 569 0
2019-03-18 10:50:14 GMT 57.696487 -9.298468 40,000 129 569 0
2019-03-18 10:50:04 GMT 57.713837 -9.337950 39,975 129 570 64
2019-03-18 10:49:53 GMT 57.730499 -9.375945 40,000 129 570 -64
2019-03-18 10:49:43 GMT 57.748169 -9.416346 40,000 129 570 -64
2019-03-18 10:49:33 GMT 57.764996 -9.454926 39,975 129 571 64
2019-03-18 10:49:23 GMT 57.781616 -9.493103 39,975 129 571 0
2019-03-18 10:49:13 GMT 57.798653 -9.532104 39,975 129 572 -64
2019-03-18 10:49:02 GMT 57.816467 -9.573167 40,000 129 573 0
2019-03-18 10:48:52 GMT 57.832264 -9.609741 40,000 129 573 0
2019-03-18 10:48:42 GMT 57.849060 -9.648565 39,975 129 573 0
2019-03-18 10:48:32 GMT 57.866898 -9.689758 40,000 129 573 -64
2019-03-18 10:48:22 GMT 57.883667 -9.728659 40,000 128 573 -64
2019-03-18 10:48:11 GMT 57.900417 -9.767578 39,975 128 572 0
2019-03-18 10:48:01 GMT 57.917542 -9.807336 40,000 128 572 -64
2019-03-18 10:47:51 GMT 57.934631 -9.847046 40,000 128 572 -64
2019-03-18 10:47:41 GMT 57.951370 -9.886012 40,000 128 571 0
2019-03-18 10:47:30 GMT 57.968288 -9.925964 39,975 128 570 64
2019-03-18 10:47:19 GMT 57.986481 -9.970270 39,975 127 570 -64
2019-03-18 10:47:10 GMT 58.000397 -10.005001 39,975 126 570 0
2019-03-18 10:47:00 GMT 58.016144 -10.045258 40,000 126 569 -64
2019-03-18 10:46:50 GMT 58.031738 -10.086273 40,000 125 569 -64
2019-03-18 10:46:39 GMT 58.047775 -10.129749 39,975 124 568 0
2019-03-18 10:46:29 GMT 58.062790 -10.170776 39,975 124 568 0
2019-03-18 10:46:19 GMT 58.077850 -10.211969 39,975 124 568 -64
2019-03-18 10:46:09 GMT 58.093048 -10.253522 40,000 124 569 0
2019-03-18 10:45:59 GMT 58.108200 -10.295164 39,975 124 569 0
2019-03-18 10:45:48 GMT 58.123672 -10.337692 40,000 124 568 -64
2019-03-18 10:45:38 GMT 58.138672 -10.378967 39,975 124 568 -64
2019-03-18 10:45:28 GMT 58.153336 -10.419469 40,000 124 568 -64
2019-03-18 10:45:18 GMT 58.168556 -10.461548 40,000 124 567 -64
2019-03-18 10:45:08 GMT 58.183594 -10.503204 40,000 124 566 -64
2019-03-18 10:44:57 GMT 58.199188 -10.546509 40,000 124 564 -64
2019-03-18 10:44:47 GMT 58.214458 -10.588806 40,000 124 563 0
2019-03-18 10:44:37 GMT 58.228638 -10.628121 39,975 124 561 64
2019-03-18 10:44:27 GMT 58.243645 -10.669830 39,975 124 559 64
2019-03-18 10:44:17 GMT 58.258530 -10.711581 40,000 124 558 -64
2019-03-18 10:44:06 GMT 58.273720 -10.754059 40,000 124 559 -64
2019-03-18 10:43:56 GMT 58.288330 -10.795042 40,000 124 559 -64
2019-03-18 10:43:45 GMT 58.303513 -10.837555 40,000 124 559 0
2019-03-18 10:43:35 GMT 58.318874 -10.880493 39,975 124 558 0
2019-03-18 10:43:25 GMT 58.332981 -10.920227 39,975 123 558 -64
2019-03-18 10:43:14 GMT 58.348480 -10.963989 39,975 123 556 -64
2019-03-18 10:43:05 GMT 58.362263 -11.002899 40,000 123 556 -64
2019-03-18 10:42:54 GMT 58.377110 -11.045013 40,000 123 556 -64
2019-03-18 10:42:44 GMT 58.391125 -11.084747 40,000 123 556 0
2019-03-18 10:42:34 GMT 58.406578 -11.128601 39,975 123 557 64
2019-03-18 10:42:24 GMT 58.420441 -11.168046 39,975 123 556 -64
2019-03-18 10:42:14 GMT 58.434952 -11.209687 40,000 123 557 -64
2019-03-18 10:42:03 GMT 58.449509 -11.251240 40,000 123 558 -64
2019-03-18 10:41:53 GMT 58.464432 -11.293680 40,000 123 558 -64
2019-03-18 10:41:43 GMT 58.478714 -11.334524 39,975 123 557 0
2019-03-18 10:41:33 GMT 58.493225 -11.376254 39,975 123 557 0
2019-03-18 10:41:23 GMT 58.508011 -11.418693 39,975 123 556 0
2019-03-18 10:41:12 GMT 58.522705 -11.461132 40,000 123 554 -64
2019-03-18 10:41:00 GMT 58.539810 -11.510559 40,000 123 554 -64
2019-03-18 10:40:51 GMT 58.552094 -11.546011 40,000 123 554 -64
2019-03-18 10:40:42 GMT 58.565788 -11.585632 40,000 123 554 0
2019-03-18 10:40:31 GMT 58.580406 -11.628113 40,000 123 554 0
2019-03-18 10:40:20 GMT 58.596188 -11.673798 40,000 123 553 0
2019-03-18 10:40:11 GMT 58.608673 -11.710185 39,975 123 553 0
2019-03-18 10:40:00 GMT 58.624649 -11.756789 39,975 123 552 -64
2019-03-18 10:39:51 GMT 58.637337 -11.793915 40,000 123 552 0
2019-03-18 10:39:40 GMT 58.652573 -11.838477 40,000 123 551 -64
2019-03-18 10:39:30 GMT 58.665783 -11.877319 39,975 123 551 0
2019-03-18 10:39:20 GMT 58.680214 -11.919891 39,975 122 551 0
2019-03-18 10:39:10 GMT 58.694084 -11.960907 39,975 123 552 -64
2019-03-18 10:39:00 GMT 58.708145 -12.002298 40,000 123 553 -128
2019-03-18 10:38:49 GMT 58.722656 -12.045003 40,000 123 553 0
2019-03-18 10:38:39 GMT 58.736729 -12.086517 39,975 123 552 64
2019-03-18 10:38:28 GMT 58.752045 -12.131744 39,975 123 552 -64
2019-03-18 10:38:19 GMT 58.765137 -12.170725 40,000 122 551 -64
2019-03-18 10:38:09 GMT 58.778812 -12.211395 40,000 122 550 0
2019-03-18 10:37:58 GMT 58.793476 -12.254883 39,975 122 550 0
2019-03-18 10:37:48 GMT 58.807068 -12.295473 40,000 122 549 -64
2019-03-18 10:37:38 GMT 58.821732 -12.339386 40,000 122 548 -64
2019-03-18 10:37:28 GMT 58.834763 -12.378314 40,000 122 548 -64
2019-03-18 10:37:17 GMT 58.849663 -12.422980 40,000 122 548 0
2019-03-18 10:37:07 GMT 58.863304 -12.463989 39,975 122 547 0
2019-03-18 10:36:57 GMT 58.877335 -12.506195 40,000 122 547 -64
2019-03-18 10:36:47 GMT 58.890930 -12.547211 40,000 122 547 -64
2019-03-18 10:36:37 GMT 58.904690 -12.588533 39,975 122 545 64
2019-03-18 10:36:27 GMT 58.918514 -12.630300 39,975 122 545 0
2019-03-18 10:36:15 GMT 58.934097 -12.677399 39,975 122 545 -64
2019-03-18 10:36:06 GMT 58.946182 -12.714294 40,000 122 544 -64
2019-03-18 10:35:45 GMT 58.973831 -12.798706 40,000 122 542 -64
2019-03-18 10:35:35 GMT 58.987644 -12.840839 40,000 122 542 -64
2019-03-18 10:35:25 GMT 59.001114 -12.882294 40,000 122 542 0
2019-03-18 10:35:15 GMT 59.014599 -12.923710 39,975 122 543 -64
2019-03-18 10:35:04 GMT 59.029587 -12.969739 40,000 122 543 -64
2019-03-18 10:34:54 GMT 59.042667 -13.009991 40,000 122 544 -64
2019-03-18 10:34:44 GMT 59.055954 -13.050751 40,000 122 543 0
2019-03-18 10:34:34 GMT 59.069717 -13.093241 40,000 122 544 0
2019-03-18 10:34:23 GMT 59.083923 -13.137360 40,000 122 544 0
2019-03-18 10:34:14 GMT 59.096466 -13.176086 40,000 122 544 0
2019-03-18 10:34:03 GMT 59.110683 -13.220341 39,975 121 543 0
2019-03-18 10:33:53 GMT 59.124344 -13.262878 39,975 121 544 -64
2019-03-18 10:33:43 GMT 59.137730 -13.304727 40,000 121 544 -64
2019-03-18 10:33:32 GMT 59.151169 -13.346649 39,975 121 545 0
2019-03-18 10:33:22 GMT 59.164719 -13.389038 40,000 121 546 0
2019-03-18 10:33:11 GMT 59.179321 -13.434814 39,975 121 545 0
2019-03-18 10:33:02 GMT 59.192242 -13.475110 40,000 121 545 0
2019-03-18 10:32:50 GMT 59.207153 -13.522339 40,000 121 545 0
2019-03-18 10:32:41 GMT 59.218826 -13.559052 40,000 121 546 0
2019-03-18 10:32:26 GMT 59.239353 -13.623710 40,000 121 546 -64
2019-03-18 10:32:12 GMT 59.258160 -13.683093 39,975 121 546 -64
2019-03-18 10:32:09 GMT 59.261993 -13.695282 39,975 121 545 0
2019-03-18 10:32:00 GMT 59.273430 -13.731679 40,000 121 545 -64
2019-03-18 10:31:50 GMT 59.286602 -13.773446 39,975 121 545 -64
2019-03-18 10:31:40 GMT 59.300171 -13.816498 40,000 121 544 0
2019-03-18 10:31:30 GMT 59.312988 -13.857422 39,975 121 542 64
2019-03-18 10:31:20 GMT 59.326450 -13.900452 39,975 121 542 0
2019-03-18 10:31:09 GMT 59.339813 -13.943390 39,975 121 541 -64
2019-03-18 10:30:59 GMT 59.352768 -13.985138 39,975 117 529 -64
We lost coverage of the aircraft here for a total of 18 minutes
2019-03-18 10:12:34 GMT 60.682053 -18.706774 40,000 117 529 -64
2019-03-18 10:12:24 GMT 60.693039 -18.750132 40,000 117 529 -64
2019-03-18 10:12:14 GMT 60.705002 -18.797419 40,000 117 529 0
2019-03-18 10:12:04 GMT 60.716034 -18.841356 39,975 117 529 64
2019-03-18 10:11:53 GMT 60.728092 -18.889227 39,975 117 529 64
2019-03-18 10:11:42 GMT 60.740067 -18.936735 39,975 117 530 0
2019-03-18 10:11:32 GMT 60.751007 -18.980303 39,975 116 530 0
2019-03-18 10:11:22 GMT 60.762314 -19.025667 40,000 116 530 0
2019-03-18 10:11:11 GMT 60.774307 -19.073780 40,000 116 530 0
2019-03-18 10:11:01 GMT 60.785385 -19.118296 39,975 116 530 0
2019-03-18 10:10:50 GMT 60.797920 -19.168690 40,000 116 530 -64
2019-03-18 10:10:40 GMT 60.808769 -19.212439 40,000 116 530 0
2019-03-18 10:10:31 GMT 60.819031 -19.253920 40,000 116 530 -64
2019-03-18 10:10:21 GMT 60.830647 -19.300819 39,975 116 530 0
2019-03-18 10:10:10 GMT 60.842098 -19.347414 39,975 116 530 0
2019-03-18 10:10:00 GMT 60.853455 -19.393520 40,000 116 530 0
2019-03-18 10:09:49 GMT 60.864956 -19.440504 39,975 116 530 0
2019-03-18 10:09:39 GMT 60.876781 -19.488960 39,975 116 530 0
2019-03-18 10:09:29 GMT 60.886837 -19.530258 39,975 116 530 0
2019-03-18 10:09:18 GMT 60.898956 -19.580099 39,975 116 531 -64
2019-03-18 10:09:08 GMT 60.909805 -19.625181 40,000 116 531 0
2019-03-18 10:08:58 GMT 60.921295 -19.672915 39,975 116 531 0
2019-03-18 10:08:48 GMT 60.931686 -19.716291 39,975 116 531 -64
2019-03-18 10:08:38 GMT 60.942791 -19.762737 40,000 116 531 0
2019-03-18 10:08:27 GMT 60.954056 -19.809723 40,000 116 531 0
2019-03-18 10:08:17 GMT 60.965092 -19.855825 39,975 116 530 0
2019-03-18 10:08:07 GMT 60.976273 -19.902302 39,975 116 531 0
2019-03-18 10:07:56 GMT 60.988132 -19.951466 39,975 116 531 -64
2019-03-18 10:07:46 GMT 60.998932 -19.995607 40,000 116 531 0
2019-03-18 10:07:36 GMT 61.010757 -20.043182 39,975 117 531 0
2019-03-18 10:07:25 GMT 61.022675 -20.090757 39,975 117 531 0
2019-03-18 10:07:15 GMT 61.033939 -20.135586 40,000 117 532 0
2019-03-18 10:07:04 GMT 61.045715 -20.182833 40,000 117 533 0
2019-03-18 10:06:54 GMT 61.057308 -20.229187 40,000 117 533 0
2019-03-18 10:06:44 GMT 61.068878 -20.275562 39,975 117 533 0
2019-03-18 10:06:34 GMT 61.080322 -20.321568 39,975 117 533 0
2019-03-18 10:06:23 GMT 61.092636 -20.371202 40,000 116 533 0
2019-03-18 10:06:13 GMT 61.103577 -20.415442 40,000 116 533 64
2019-03-18 10:06:03 GMT 61.115082 -20.462036 39,975 116 533 0
2019-03-18 10:05:52 GMT 61.126488 -20.508219 39,975 116 533 0
2019-03-18 10:05:41 GMT 61.139427 -20.560810 39,975 116 533 0
2019-03-18 10:05:32 GMT 61.149437 -20.601603 40,000 116 533 -64
2019-03-18 10:05:21 GMT 61.160980 -20.648804 40,000 116 533 0
2019-03-18 10:05:11 GMT 61.172527 -20.696005 40,000 116 533 0
2019-03-18 10:05:01 GMT 61.183731 -20.741991 39,975 116 533 0
2019-03-18 10:04:51 GMT 61.194992 -20.788389 40,000 116 533 -64
2019-03-18 10:04:40 GMT 61.206787 -20.837097 40,000 116 533 0
2019-03-18 10:04:30 GMT 61.217743 -20.882263 40,000 116 533 0
2019-03-18 10:04:20 GMT 61.229321 -20.930176 39,975 116 534 0
2019-03-18 10:04:09 GMT 61.240540 -20.976868 39,975 116 535 -64
2019-03-18 10:03:59 GMT 61.252075 -21.024889 40,000 116 535 -64
2019-03-18 10:03:49 GMT 61.263210 -21.071268 40,000 116 535 0
2019-03-18 10:03:38 GMT 61.274551 -21.118469 39,975 116 535 0
2019-03-18 10:03:28 GMT 61.285538 -21.164474 40,000 116 535 64
2019-03-18 10:03:18 GMT 61.296822 -21.211853 40,000 116 535 0
2019-03-18 10:03:07 GMT 61.308746 -21.261978 39,975 116 535 0
2019-03-18 10:02:57 GMT 61.319687 -21.308081 40,000 116 536 0
2019-03-18 10:02:47 GMT 61.330811 -21.355068 40,000 116 536 64
2019-03-18 10:02:37 GMT 61.341839 -21.401672 39,975 116 536 0
2019-03-18 10:02:27 GMT 61.352962 -21.448669 40,000 116 535 0
2019-03-18 10:02:16 GMT 61.364464 -21.497702 40,000 115 536 -64
2019-03-18 10:02:05 GMT 61.376083 -21.547132 40,000 116 535 0
2019-03-18 10:01:48 GMT 61.394485 -21.625801 40,000 116 535 0
2019-03-18 10:01:45 GMT 61.397839 -21.640116 40,000 115 536 -64
2019-03-18 10:01:35 GMT 61.409058 -21.688232 40,000 115 535 0
2019-03-18 10:01:21 GMT 61.423645 -21.750772 39,975 115 535 64
2019-03-18 10:01:15 GMT 61.431080 -21.782736 39,975 115 535 0
2019-03-18 10:01:04 GMT 61.442368 -21.831503 40,000 115 536 -64
2019-03-18 10:00:54 GMT 61.453308 -21.878880 39,975 115 535 0
2019-03-18 10:00:43 GMT 61.464550 -21.927694 39,975 115 534 0
2019-03-18 10:00:33 GMT 61.475555 -21.975599 40,000 115 534 0
2019-03-18 10:00:23 GMT 61.486679 -22.023861 40,000 115 534 0
2019-03-18 10:00:13 GMT 61.497231 -22.069906 39,975 115 534 0
2019-03-18 10:00:02 GMT 61.508835 -22.120579 40,000 115 534 0
2019-03-18 09:59:52 GMT 61.519043 -22.165310 39,975 115 534 0
2019-03-18 09:59:42 GMT 61.530003 -22.213339 40,000 115 535 0
2019-03-18 09:59:31 GMT 61.541336 -22.263304 39,975 115 535 0
2019-03-18 09:59:21 GMT 61.552441 -22.312420 40,000 115 536 0
2019-03-18 09:59:11 GMT 61.563007 -22.359314 40,000 115 537 0
2019-03-18 09:59:00 GMT 61.574158 -22.408676 39,975 115 537 64
2019-03-18 09:58:50 GMT 61.584606 -22.455139 39,975 115 538 64
2019-03-18 09:58:38 GMT 61.597549 -22.512613 40,000 115 538 64
2019-03-18 09:58:30 GMT 61.606441 -22.552185 39,975 115 539 0
2019-03-18 09:58:19 GMT 61.617508 -22.601820 40,000 115 539 0
2019-03-18 09:58:08 GMT 61.629017 -22.653402 39,975 115 539 0
2019-03-18 09:57:59 GMT 61.639206 -22.699224 40,000 114 539 0
2019-03-18 09:57:48 GMT 61.650059 -22.748108 40,000 114 540 64
2019-03-18 09:57:38 GMT 61.660675 -22.796041 39,975 114 540 64
2019-03-18 09:57:28 GMT 61.671387 -22.844500 40,000 114 540 64
2019-03-18 09:57:18 GMT 61.682133 -22.893473 40,000 114 540 -64
2019-03-18 09:57:07 GMT 61.693260 -22.943930 39,975 114 540 0
2019-03-18 09:56:57 GMT 61.704105 -22.993570 39,975 114 541 0
2019-03-18 09:56:47 GMT 61.714462 -23.040783 40,000 114 541 0
2019-03-18 09:56:36 GMT 61.725540 -23.091496 40,000 114 542 0
2019-03-18 09:56:26 GMT 61.736206 -23.140347 40,000 114 542 -64
2019-03-18 09:56:15 GMT 61.747421 -23.192041 40,000 114 542 0
2019-03-18 09:56:05 GMT 61.758041 -23.240990 40,000 114 541 0
2019-03-18 09:55:55 GMT 61.768433 -23.288956 40,000 114 541 0
2019-03-18 09:55:44 GMT 61.779373 -23.339767 39,975 114 541 0
2019-03-18 09:55:34 GMT 61.790646 -23.392029 40,000 114 541 0
2019-03-18 09:55:24 GMT 61.800476 -23.437662 40,000 114 541 -64
2019-03-18 09:55:14 GMT 61.811363 -23.488056 40,000 114 542 -64
2019-03-18 09:55:03 GMT 61.822071 -23.538107 40,000 114 542 -64
2019-03-18 09:54:53 GMT 61.832916 -23.589172 40,000 114 542 0
2019-03-18 09:54:43 GMT 61.842636 -23.635025 39,975 114 542 0
2019-03-18 09:54:33 GMT 61.853256 -23.685150 39,975 114 541 64
2019-03-18 09:54:22 GMT 61.863735 -23.734741 39,975 114 541 0
2019-03-18 09:54:12 GMT 61.874722 -23.786825 39,975 114 540 -64
2019-03-18 09:54:02 GMT 61.884750 -23.834642 40,000 113 541 -64
2019-03-18 09:53:51 GMT 61.895763 -23.887226 40,000 113 540 0
2019-03-18 09:53:41 GMT 61.905762 -23.934992 39,975 113 540 64
2019-03-18 09:53:30 GMT 61.916473 -23.986097 39,975 113 539 64
2019-03-18 09:53:20 GMT 61.926441 -24.033813 39,975 113 539 0
2019-03-18 09:53:10 GMT 61.936913 -24.083963 39,975 113 539 0
2019-03-18 09:53:00 GMT 61.946922 -24.132181 39,975 113 538 -64
2019-03-18 09:52:49 GMT 61.957809 -24.184734 39,975 113 539 0
2019-03-18 09:52:39 GMT 61.967972 -24.233976 40,000 113 538 -64
2019-03-18 09:52:27 GMT 61.979370 -24.288908 40,000 113 536 -64
2019-03-18 09:52:18 GMT 61.989006 -24.335531 40,000 113 535 0
2019-03-18 09:52:08 GMT 61.998505 -24.381510 40,000 113 532 128
2019-03-18 09:51:58 GMT 62.008884 -24.432068 39,975 113 529 128
2019-03-18 09:51:47 GMT 62.019516 -24.483915 39,975 113 529 128
2019-03-18 09:51:37 GMT 62.028854 -24.529724 39,975 113 530 64
2019-03-18 09:51:27 GMT 62.038742 -24.578476 40,000 113 532 -448
2019-03-18 09:51:16 GMT 62.048920 -24.629007 40,075 113 533 -576
2019-03-18 09:51:06 GMT 62.059254 -24.679972 40,175 113 533 -704
2019-03-18 09:50:56 GMT 62.068981 -24.728088 40,300 113 533 -768
2019-03-18 09:50:45 GMT 62.079163 -24.778683 40,425 113 533 -768
2019-03-18 09:50:35 GMT 62.089046 -24.828287 40,550 113 532 -768
2019-03-18 09:50:15 GMT 62.108551 -24.926018 40,775 113 530 -704
2019-03-18 09:50:03 GMT 62.120041 -24.983500 40,900 113 528 -576
2019-03-18 09:49:53 GMT 62.129642 -25.031738 40,975 112 526 -384
2019-03-18 09:49:44 GMT 62.138161 -25.074709 41,000 112 525 0
2019-03-18 09:49:33 GMT 62.148239 -25.125732 41,000 112 525 0
2019-03-18 09:49:23 GMT 62.157898 -25.174747 41,000 112 524 0
2019-03-18 09:49:13 GMT 62.167236 -25.221863 40,975 112 523 64
2019-03-18 09:49:02 GMT 62.176758 -25.270487 40,975 112 523 0
2019-03-18 09:48:52 GMT 62.186714 -25.321375 40,975 112 522 0
2019-03-18 09:48:42 GMT 62.196121 -25.369364 41,000 112 522 -64
2019-03-18 09:48:31 GMT 62.205849 -25.419300 41,000 112 522 0
2019-03-18 09:48:21 GMT 62.215393 -25.468241 40,975 112 522 64
2019-03-18 09:48:10 GMT 62.225006 -25.517782 40,975 112 522 64
2019-03-18 09:48:00 GMT 62.234436 -25.566507 40,975 112 522 0
2019-03-18 09:47:50 GMT 62.243774 -25.615234 41,000 112 523 0
2019-03-18 09:47:40 GMT 62.252865 -25.662477 41,000 112 523 0
2019-03-18 09:47:30 GMT 62.262455 -25.712233 40,975 112 523 0
2019-03-18 09:47:19 GMT 62.271927 -25.761618 40,975 112 523 0
2019-03-18 09:47:09 GMT 62.281403 -25.810900 40,975 112 523 0
2019-03-18 09:46:59 GMT 62.290756 -25.859703 40,975 112 523 0
2019-03-18 09:46:48 GMT 62.300442 -25.910515 40,975 112 522 0
2019-03-18 09:46:38 GMT 62.309647 -25.958862 40,975 112 522 0
2019-03-18 09:46:28 GMT 62.319214 -26.009623 41,000 111 521 -64
2019-03-18 09:46:18 GMT 62.328140 -26.057035 41,000 111 521 0
2019-03-18 09:46:07 GMT 62.338120 -26.110229 41,000 111 521 0
2019-03-18 09:45:57 GMT 62.347225 -26.158659 41,000 111 521 64
2019-03-18 09:45:46 GMT 62.356476 -26.208191 41,000 111 522 64
2019-03-18 09:45:36 GMT 62.365585 -26.257120 40,975 111 522 64
2019-03-18 09:45:26 GMT 62.374557 -26.305237 41,000 111 522 0
2019-03-18 09:45:15 GMT 62.384262 -26.357218 40,975 111 522 0
2019-03-18 09:45:05 GMT 62.393497 -26.406801 41,000 111 522 0
2019-03-18 09:44:55 GMT 62.402809 -26.456980 41,000 111 523 64
2019-03-18 09:44:44 GMT 62.412003 -26.506756 41,000 111 524 0
2019-03-18 09:44:34 GMT 62.421013 -26.555645 41,000 111 524 0
2019-03-18 09:44:24 GMT 62.430088 -26.604979 41,000 111 523 64
2019-03-18 09:44:14 GMT 62.439285 -26.654867 41,000 111 524 0
2019-03-18 09:44:03 GMT 62.448383 -26.704910 41,000 111 525 0
2019-03-18 09:43:53 GMT 62.457504 -26.755066 41,000 111 525 0
2019-03-18 09:43:43 GMT 62.466587 -26.805267 41,000 111 526 64
2019-03-18 09:43:33 GMT 62.475616 -26.855022 40,975 111 527 0
2019-03-18 09:43:22 GMT 62.484787 -26.906046 40,975 111 528 0
2019-03-18 09:43:11 GMT 62.494377 -26.958969 40,975 111 529 0
2019-03-18 09:43:02 GMT 62.503036 -27.007141 41,000 111 530 0
2019-03-18 09:42:51 GMT 62.512581 -27.060383 40,975 111 530 0
2019-03-18 09:42:41 GMT 62.521236 -27.108765 40,975 111 530 64
2019-03-18 09:42:30 GMT 62.530643 -27.161161 40,975 111 531 0
2019-03-18 09:42:19 GMT 62.540222 -27.215069 40,975 110 531 -64
2019-03-18 09:42:10 GMT 62.548702 -27.262997 41,000 110 532 0
2019-03-18 09:42:00 GMT 62.557644 -27.313597 41,000 110 532 0
2019-03-18 09:41:49 GMT 62.567184 -27.367655 41,000 110 532 0
2019-03-18 09:41:39 GMT 62.575745 -27.416281 41,000 110 531 0
2019-03-18 09:41:27 GMT 62.586365 -27.476807 41,000 110 531 0
2019-03-18 09:41:17 GMT 62.594791 -27.524977 41,000 110 531 0
2019-03-18 09:41:08 GMT 62.602341 -27.568258 41,000 110 532 0
2019-03-18 09:40:57 GMT 62.612106 -27.624489 41,000 110 533 0
2019-03-18 09:40:47 GMT 62.621140 -27.676355 41,000 110 532 0
2019-03-18 09:40:37 GMT 62.629238 -27.723366 41,000 110 532 64
2019-03-18 09:40:27 GMT 62.638039 -27.774178 41,000 110 531 0
2019-03-18 09:40:16 GMT 62.647110 -27.826538 40,975 110 531 64
2019-03-18 09:40:06 GMT 62.656036 -27.878519 40,975 110 531 64
2019-03-18 09:39:55 GMT 62.665100 -27.931417 41,000 110 531 0
2019-03-18 09:39:45 GMT 62.673744 -27.981754 41,000 110 531 0
2019-03-18 09:39:35 GMT 62.682724 -28.034159 40,975 110 531 0
2019-03-18 09:39:25 GMT 62.691193 -28.084106 40,975 110 531 0
2019-03-18 09:39:14 GMT 62.700165 -28.137207 41,000 110 532 0
2019-03-18 09:39:03 GMT 62.709682 -28.193876 41,000 110 532 0
2019-03-18 09:38:54 GMT 62.717457 -28.240040 40,975 110 532 64
2019-03-18 09:38:43 GMT 62.726254 -28.292225 41,000 110 533 64
2019-03-18 09:38:33 GMT 62.735004 -28.344515 41,000 110 533 0
2019-03-18 09:38:16 GMT 62.749298 -28.430187 41,000 109 533 64
2019-03-18 09:38:12 GMT 62.752396 -28.448792 40,975 109 533 64
2019-03-18 09:38:02 GMT 62.760887 -28.499804 40,975 110 534 0
2019-03-18 09:37:47 GMT 62.773361 -28.575033 41,000 109 534 64
2019-03-18 09:37:41 GMT 62.778351 -28.605347 40,975 109 535 0
2019-03-18 09:37:31 GMT 62.786499 -28.654989 40,975 109 535 0
2019-03-18 09:37:21 GMT 62.795197 -28.707682 40,975 109 535 0
2019-03-18 09:37:11 GMT 62.803623 -28.759039 40,975 109 537 0
2019-03-18 09:37:00 GMT 62.812500 -28.813578 40,975 109 537 64
We lost coverage of the aircraft here for a total of 259 minutes
2019-03-18 05:17:58 GMT 49.737717 -93.520103 38,975 52 479 -64
2019-03-18 05:17:53 GMT 49.732910 -93.529861 38,975 52 479 -64
2019-03-18 05:17:44 GMT 49.719700 -93.556824 39,000 52 479 -64
2019-03-18 05:17:33 GMT 49.705444 -93.585876 39,000 52 479 -64
2019-03-18 05:17:03 GMT 49.665466 -93.667130 38,975 52 479 -64
2019-03-18 05:16:55 GMT 49.653809 -93.690681 39,000 52 478 -64
2019-03-18 05:16:41 GMT 49.635719 -93.727333 39,000 52 478 -64
2019-03-18 05:16:07 GMT 49.590820 -93.817894 38,975 52 478 0
2019-03-18 05:15:59 GMT 49.578461 -93.842987 39,000 52 477 0
2019-03-18 05:15:47 GMT 49.564178 -93.871887 38,975 52 477 -64
2019-03-18 05:15:24 GMT 49.533417 -93.933830 39,000 52 478 -64
2019-03-18 05:15:17 GMT 49.522224 -93.956192 38,975 52 479 -64
2019-03-18 05:15:01 GMT 49.502857 -93.994942 39,000 52 479 -64
2019-03-18 05:14:19 GMT 49.447678 -94.112068 38,975 55 480 -64
2019-03-18 05:14:11 GMT 49.436474 -94.137093 38,975 55 480 -64
2019-03-18 05:14:02 GMT 49.427032 -94.158112 38,975 55 480 -64
2019-03-18 05:13:53 GMT 49.414169 -94.186707 39,000 55 481 -64
2019-03-18 05:13:41 GMT 49.400444 -94.217377 39,000 55 481 -64
2019-03-18 05:13:32 GMT 49.387035 -94.247154 39,000 55 482 -64
2019-03-18 05:12:44 GMT 49.325958 -94.382462 38,975 55 482 0
2019-03-18 05:12:36 GMT 49.308105 -94.421997 39,000 55 482 0
2019-03-18 05:12:29 GMT 49.308105 -94.421997 39,000 55 482 -64
2019-03-18 05:12:17 GMT 49.291233 -94.459221 39,000 55 482 -64
2019-03-18 05:12:07 GMT 49.279404 -94.485237 39,000 55 482 0
2019-03-18 05:11:57 GMT 49.266838 -94.512924 38,975 55 482 -64
2019-03-18 05:11:46 GMT 49.253571 -94.541977 38,975 55 482 -64
2019-03-18 05:11:36 GMT 49.239212 -94.573555 38,975 55 482 -64
2019-03-18 05:11:24 GMT 49.225594 -94.603416 39,000 55 482 -64
2019-03-18 05:11:14 GMT 49.212708 -94.631516 39,000 55 481 0
2019-03-18 05:11:04 GMT 49.199936 -94.659332 38,975 55 481 -64
2019-03-18 05:10:54 GMT 49.186478 -94.688911 38,975 55 482 -64
2019-03-18 05:10:44 GMT 49.173363 -94.717613 39,000 55 481 -64
2019-03-18 05:10:32 GMT 49.158691 -94.749619 39,000 55 481 -64
2019-03-18 05:10:22 GMT 49.146034 -94.777100 39,000 55 481 -64
2019-03-18 05:10:11 GMT 49.132767 -94.806015 39,000 54 481 -64
2019-03-18 05:10:02 GMT 49.119267 -94.835358 39,000 54 481 -64
2019-03-18 05:09:51 GMT 49.106873 -94.862228 39,000 54 480 -64
2019-03-18 05:09:40 GMT 49.092819 -94.892647 39,000 54 481 0
2019-03-18 05:09:30 GMT 49.080166 -94.920067 38,975 54 481 0
2019-03-18 05:09:20 GMT 49.066105 -94.950500 38,975 54 481 0
2019-03-18 05:09:10 GMT 49.053303 -94.978180 38,975 54 482 -64
2019-03-18 05:08:59 GMT 49.040359 -95.006172 38,975 54 482 -64
2019-03-18 05:08:49 GMT 49.027039 -95.034981 39,000 54 483 0
2019-03-18 05:08:37 GMT 49.012161 -95.067093 38,975 54 483 -64
2019-03-18 05:08:27 GMT 48.998371 -95.096718 38,975 54 483 -64
2019-03-18 05:08:16 GMT 48.985931 -95.123642 39,000 54 483 -64
2019-03-18 05:08:06 GMT 48.971237 -95.155197 39,000 54 482 -64
2019-03-18 05:07:55 GMT 48.958099 -95.183365 39,000 54 481 -64
2019-03-18 05:07:46 GMT 48.945282 -95.210831 38,975 54 480 0
2019-03-18 05:07:34 GMT 48.932419 -95.238297 38,975 54 479 -64
2019-03-18 05:07:25 GMT 48.918869 -95.267242 39,000 54 478 -64
2019-03-18 05:07:13 GMT 48.905548 -95.295692 39,000 54 478 -64
2019-03-18 05:07:04 GMT 48.892418 -95.323814 39,000 54 478 -64
2019-03-18 05:06:53 GMT 48.879105 -95.352219 39,000 54 478 -64
2019-03-18 05:06:43 GMT 48.864944 -95.382523 39,000 54 477 -64
2019-03-18 05:06:31 GMT 48.851852 -95.410271 39,000 54 477 -64
2019-03-18 05:06:22 GMT 48.838531 -95.438446 39,000 54 476 -64
2019-03-18 05:06:11 GMT 48.825336 -95.466347 39,000 54 476 -64
2019-03-18 05:06:01 GMT 48.811661 -95.495346 39,000 54 475 -64
2019-03-18 05:05:49 GMT 48.797562 -95.525139 38,975 54 475 -64
2019-03-18 05:05:40 GMT 48.785114 -95.551422 38,975 54 476 -64
2019-03-18 05:05:29 GMT 48.771851 -95.579613 38,975 54 476 -64
2019-03-18 05:05:18 GMT 48.757977 -95.608879 39,000 54 476 -64
2019-03-18 05:05:08 GMT 48.744614 -95.637001 38,975 54 476 -64
2019-03-18 05:04:58 GMT 48.730789 -95.666199 38,975 54 477 -64
2019-03-18 05:04:47 GMT 48.717663 -95.693810 39,000 54 477 -64
2019-03-18 05:04:36 GMT 48.704067 -95.722504 39,000 54 476 -64
2019-03-18 05:04:26 GMT 48.690857 -95.750282 39,000 54 476 -64
2019-03-18 05:04:15 GMT 48.677490 -95.778313 39,000 54 475 0
2019-03-18 05:04:06 GMT 48.664082 -95.806564 39,000 54 474 0
2019-03-18 05:03:54 GMT 48.650532 -95.834969 38,975 54 472 -64
2019-03-18 05:03:45 GMT 48.636940 -95.863304 39,000 54 473 -64
2019-03-18 05:03:34 GMT 48.624023 -95.890366 38,975 54 472 -64
2019-03-18 05:03:24 GMT 48.610428 -95.918671 39,000 54 473 -64
2019-03-18 05:03:12 GMT 48.596718 -95.947289 38,975 54 473 -64
2019-03-18 05:03:03 GMT 48.583405 -95.975044 38,975 54 472 -64
2019-03-18 05:02:51 GMT 48.569813 -96.003304 39,000 54 473 -64
2019-03-18 05:02:42 GMT 48.556499 -96.030991 38,975 54 472 -64
2019-03-18 05:02:31 GMT 48.543137 -96.058670 38,975 53 472 -64
2019-03-18 05:02:21 GMT 48.529449 -96.087059 39,000 54 471 -64
2019-03-18 05:02:09 GMT 48.516174 -96.114670 39,000 53 471 -64
2019-03-18 05:01:59 GMT 48.502625 -96.142693 38,975 54 470 -64
2019-03-18 05:01:49 GMT 48.488892 -96.171219 39,000 54 469 -64
2019-03-18 05:01:38 GMT 48.475891 -96.198120 39,000 53 468 -64
2019-03-18 05:01:28 GMT 48.462509 -96.225708 39,000 53 468 -64
2019-03-18 05:01:17 GMT 48.449158 -96.253265 39,000 53 468 -64
2019-03-18 05:01:07 GMT 48.435509 -96.281288 39,000 53 467 -64
2019-03-18 05:00:59 GMT 48.425674 -96.301437 39,000 53 467 0
2019-03-18 05:00:55 GMT 48.421730 -96.309547 39,000 53 467 0
2019-03-18 05:00:49 GMT 48.411896 -96.329742 39,000 53 467 0
2019-03-18 05:00:45 GMT 48.408554 -96.336510 38,975 53 467 -64
2019-03-18 05:00:34 GMT 48.395050 -96.364326 39,000 53 467 -64
2019-03-18 05:00:25 GMT 48.381821 -96.391579 39,000 53 468 -64
2019-03-18 05:00:13 GMT 48.368042 -96.419891 39,000 53 468 -64
2019-03-18 05:00:04 GMT 48.354721 -96.447075 39,000 53 468 -64
2019-03-18 04:59:52 GMT 48.341286 -96.474564 39,000 53 468 0
2019-03-18 04:59:43 GMT 48.328205 -96.501228 38,975 53 469 0
2019-03-18 04:59:31 GMT 48.313587 -96.531013 38,975 53 469 -64
2019-03-18 04:59:22 GMT 48.300785 -96.557175 39,000 53 469 -64
2019-03-18 04:59:13 GMT 48.289856 -96.579475 39,000 53 470 -64
2019-03-18 04:59:01 GMT 48.274063 -96.611671 39,000 53 470 -64
2019-03-18 04:58:52 GMT 48.262520 -96.635239 39,000 53 469 -64
2019-03-18 04:58:49 GMT 48.260056 -96.640182 39,000 53 469 -64
2019-03-18 04:58:40 GMT 48.247299 -96.666023 39,000 53 469 -64
2019-03-18 04:58:31 GMT 48.233231 -96.694473 38,975 53 469 -64
2019-03-18 04:58:19 GMT 48.219971 -96.721321 39,000 53 469 -64
2019-03-18 04:58:07 GMT 48.206284 -96.749001 39,000 53 469 -64
2019-03-18 04:57:58 GMT 48.193157 -96.775673 39,000 53 470 -64
2019-03-18 04:57:47 GMT 48.179657 -96.802780 38,975 53 471 -64
2019-03-18 04:57:37 GMT 48.165924 -96.830460 39,000 53 471 -64
2019-03-18 04:57:30 GMT 48.155823 -96.850891 38,975 53 471 -64
2019-03-18 04:57:26 GMT 48.152191 -96.858215 38,975 53 471 -64
2019-03-18 04:57:19 GMT 48.142731 -96.877304 38,975 53 472 -64
2019-03-18 04:57:16 GMT 48.138691 -96.885468 39,000 53 472 -64
2019-03-18 04:57:08 GMT 48.129616 -96.903778 39,000 53 473 -64
2019-03-18 04:56:58 GMT 48.115555 -96.932091 39,000 53 473 -64
2019-03-18 04:56:55 GMT 48.111237 -96.940750 39,000 53 473 -64
2019-03-18 04:56:47 GMT 48.102127 -96.959084 38,975 53 473 -64
2019-03-18 04:56:44 GMT 48.098049 -96.967163 39,000 53 473 -64
2019-03-18 04:56:37 GMT 48.088928 -96.985542 39,000 53 473 -64
2019-03-18 04:56:34 GMT 48.083202 -96.997025 39,000 53 473 -64
2019-03-18 04:56:26 GMT 48.074032 -97.015335 38,975 53 473 -64
2019-03-18 04:56:23 GMT 48.069328 -97.024773 38,975 53 474 -64
2019-03-18 04:56:14 GMT 48.058731 -97.046013 38,975 53 473 -64
2019-03-18 04:56:11 GMT 48.055344 -97.052811 39,000 53 474 -64
2019-03-18 04:56:05 GMT 48.046967 -97.069565 39,000 53 474 -64
2019-03-18 04:56:02 GMT 48.041977 -97.079590 39,000 53 474 -64
2019-03-18 04:55:54 GMT 48.031769 -97.100052 39,000 53 475 -64
2019-03-18 04:55:51 GMT 48.028221 -97.107101 39,000 53 475 -64
2019-03-18 04:55:44 GMT 48.019455 -97.124634 39,000 53 475 -64
2019-03-18 04:55:41 GMT 48.014305 -97.134842 38,975 53 475 -64
2019-03-18 04:55:33 GMT 48.004440 -97.154503 39,000 53 475 -64
2019-03-18 04:55:30 GMT 48.000778 -97.161850 39,000 53 475 -64
2019-03-18 04:55:23 GMT 47.992470 -97.178368 39,000 53 475 -64
2019-03-18 04:55:20 GMT 47.986588 -97.190140 39,000 53 475 -64
2019-03-18 04:55:14 GMT 47.978554 -97.206116 39,000 53 475 -64
2019-03-18 04:55:11 GMT 47.976013 -97.211082 39,000 53 475 -64
2019-03-18 04:55:08 GMT 47.972733 -97.217598 38,975 53 475 0
2019-03-18 04:55:02 GMT 47.962875 -97.237244 39,000 53 475 -64
2019-03-18 04:54:59 GMT 47.959045 -97.244850 39,000 53 475 -64
2019-03-18 04:54:53 GMT 47.951294 -97.260315 38,975 53 475 -64
2019-03-18 04:54:48 GMT 47.945480 -97.271782 39,000 53 475 -64
2019-03-18 04:54:41 GMT 47.934792 -97.292953 39,000 53 475 -64
2019-03-18 04:54:38 GMT 47.930836 -97.300766 39,000 53 475 -64
2019-03-18 04:54:30 GMT 47.921219 -97.319847 39,000 53 475 -64
2019-03-18 04:54:27 GMT 47.916733 -97.328705 38,975 53 474 -64
2019-03-18 04:54:20 GMT 47.906860 -97.348236 39,000 52 474 -64
2019-03-18 04:54:15 GMT 47.903046 -97.355759 39,000 53 474 -64
2019-03-18 04:54:09 GMT 47.894073 -97.373474 38,975 53 474 0
2019-03-18 04:54:05 GMT 47.889359 -97.382881 38,975 53 474 -64
2019-03-18 04:54:00 GMT 47.881817 -97.397675 38,975 53 474 -64
2019-03-18 04:53:55 GMT 47.875397 -97.410484 39,000 53 474 -64
2019-03-18 04:53:49 GMT 47.868176 -97.424789 39,000 53 474 -64
2019-03-18 04:53:44 GMT 47.854443 -97.451828 39,000 52 474 -64
2019-03-18 04:53:40 GMT 47.854443 -97.451828 39,000 52 474 -64
2019-03-18 04:53:33 GMT 47.845226 -97.470001 39,000 52 474 -64
2019-03-18 04:53:28 GMT 47.840332 -97.479561 39,000 52 474 -64
2019-03-18 04:53:22 GMT 47.831772 -97.496475 39,000 52 474 -64
2019-03-18 04:53:19 GMT 47.826466 -97.506828 39,000 52 473 -64
2019-03-18 04:53:12 GMT 47.817398 -97.524742 38,975 52 473 0
2019-03-18 04:53:08 GMT 47.812958 -97.533531 38,975 52 473 0
2019-03-18 04:53:01 GMT 47.805313 -97.548500 39,000 52 472 -64
2019-03-18 04:52:58 GMT 47.799652 -97.559647 39,000 52 472 -64
2019-03-18 04:52:50 GMT 47.790298 -97.578026 38,975 52 473 0
2019-03-18 04:52:47 GMT 47.785686 -97.587044 39,000 52 473 -64
2019-03-18 04:52:40 GMT 47.776611 -97.604942 38,975 52 474 -64
2019-03-18 04:52:36 GMT 47.771851 -97.614281 38,975 52 474 0
2019-03-18 04:52:29 GMT 47.762737 -97.632118 38,975 52 474 -64
2019-03-18 04:52:25 GMT 47.757477 -97.642471 38,975 52 475 -64
2019-03-18 04:52:20 GMT 47.749146 -97.658844 39,000 52 475 -64
2019-03-18 04:52:15 GMT 47.743137 -97.670502 38,975 52 476 -64
2019-03-18 04:52:09 GMT 47.735455 -97.685570 39,000 52 476 -64
2019-03-18 04:52:04 GMT 47.729591 -97.696976 39,000 52 476 -64
2019-03-18 04:51:59 GMT 47.721352 -97.713036 39,000 52 476 -64
2019-03-18 04:51:54 GMT 47.715996 -97.723457 39,000 52 476 -64
2019-03-18 04:51:48 GMT 47.708038 -97.739021 39,000 52 476 -64
2019-03-18 04:51:43 GMT 47.701767 -97.751198 39,000 52 476 -64
2019-03-18 04:51:37 GMT 47.691650 -97.770905 39,000 52 476 -64
2019-03-18 04:51:33 GMT 47.688065 -97.777901 39,000 52 476 0
2019-03-18 04:51:28 GMT 47.680481 -97.792740 39,000 52 476 -64
2019-03-18 04:51:24 GMT 47.674194 -97.804871 38,975 52 476 0
2019-03-18 04:51:16 GMT 47.665955 -97.820999 39,000 52 476 0
2019-03-18 04:51:12 GMT 47.660648 -97.831352 39,000 52 476 -64
2019-03-18 04:51:03 GMT 47.646927 -97.858040 39,000 52 476 -64
2019-03-18 04:50:55 GMT 47.638412 -97.874657 39,000 52 476 0
2019-03-18 04:50:52 GMT 47.632950 -97.885223 39,000 52 476 0
2019-03-18 04:50:45 GMT 47.623871 -97.902832 38,975 52 476 0
2019-03-18 04:50:42 GMT 47.619186 -97.911942 38,975 52 476 -64
2019-03-18 04:50:35 GMT 47.609802 -97.930069 38,975 52 477 -64
2019-03-18 04:50:30 GMT 47.603668 -97.941948 38,975 52 477 -64
2019-03-18 04:50:23 GMT 47.594559 -97.959595 38,975 52 477 -64
2019-03-18 04:50:19 GMT 47.589752 -97.968933 38,975 52 477 -64
2019-03-18 04:50:14 GMT 47.581554 -97.984665 38,975 52 477 -64
2019-03-18 04:50:09 GMT 47.576294 -97.994820 39,000 52 478 -64
2019-03-18 04:50:03 GMT 47.567589 -98.011642 39,000 52 478 -64
2019-03-18 04:50:00 GMT 47.562378 -98.021736 39,000 52 478 -64
2019-03-18 04:49:52 GMT 47.551250 -98.043259 39,000 52 478 -64
2019-03-18 04:49:48 GMT 47.547913 -98.049751 39,000 52 478 -64
2019-03-18 04:49:39 GMT 47.534500 -98.075569 39,000 52 477 -64
2019-03-18 04:49:31 GMT 47.524567 -98.094727 39,000 52 477 -64
2019-03-18 04:49:28 GMT 47.520664 -98.102203 39,000 52 477 -64
2019-03-18 04:49:21 GMT 47.511307 -98.120232 39,000 52 476 0
2019-03-18 04:49:18 GMT 47.506744 -98.129036 39,000 52 476 0
2019-03-18 04:49:10 GMT 47.496140 -98.149384 38,975 52 475 0
2019-03-18 04:49:07 GMT 47.492779 -98.155800 38,975 52 475 0
2019-03-18 04:48:59 GMT 47.482727 -98.175064 38,975 52 475 -64
2019-03-18 04:48:56 GMT 47.478699 -98.182755 39,000 52 475 -64
2019-03-18 04:48:48 GMT 47.466934 -98.205345 39,000 52 475 -64
2019-03-18 04:48:45 GMT 47.462906 -98.213036 39,000 52 475 -64
2019-03-18 04:48:39 GMT 47.453796 -98.230476 39,000 52 475 -64
2019-03-18 04:48:35 GMT 47.449345 -98.238968 39,000 52 475 -64
2019-03-18 04:48:27 GMT 47.438919 -98.258972 39,000 52 475 0
2019-03-18 04:48:24 GMT 47.435429 -98.265663 38,975 52 475 0
2019-03-18 04:48:18 GMT 47.425095 -98.285408 38,975 52 475 0
2019-03-18 04:48:14 GMT 47.421509 -98.292351 38,975 52 475 0
2019-03-18 04:48:06 GMT 47.411312 -98.311859 38,975 52 475 0
2019-03-18 04:48:03 GMT 47.407700 -98.318779 38,975 52 476 -64
2019-03-18 04:47:56 GMT 47.397346 -98.338554 39,000 52 477 -64
2019-03-18 04:47:53 GMT 47.393738 -98.345490 39,000 52 477 -64
2019-03-18 04:47:47 GMT 47.384033 -98.363960 39,000 52 476 -64
2019-03-18 04:47:44 GMT 47.379562 -98.372429 39,000 52 477 -64
2019-03-18 04:47:36 GMT 47.369751 -98.391151 39,000 52 477 -64
2019-03-18 04:47:32 GMT 47.364899 -98.400421 38,975 52 477 -64
2019-03-18 04:47:26 GMT 47.355743 -98.417931 38,975 52 477 -64
2019-03-18 04:47:19 GMT 47.346420 -98.435669 39,000 52 478 -64
2019-03-18 04:47:15 GMT 47.341965 -98.444160 39,000 52 478 -64
2019-03-18 04:47:12 GMT 47.337482 -98.452644 39,000 52 478 -64
2019-03-18 04:47:05 GMT 47.327866 -98.470871 39,000 52 478 -64
2019-03-18 04:47:02 GMT 47.323421 -98.479332 39,000 52 478 -64
2019-03-18 04:46:51 GMT 47.310013 -98.504723 38,975 52 478 0
2019-03-18 04:46:44 GMT 47.299484 -98.524773 38,975 52 477 -64
2019-03-18 04:46:40 GMT 47.295959 -98.531433 38,975 52 477 -64
2019-03-18 04:46:32 GMT 47.284225 -98.553772 39,000 52 476 -64
2019-03-18 04:46:28 GMT 47.278824 -98.563988 38,975 52 476 -64
2019-03-18 04:46:22 GMT 47.271236 -98.578346 39,000 52 476 -64
2019-03-18 04:46:19 GMT 47.266251 -98.587738 39,000 52 476 0
2019-03-18 04:46:11 GMT 47.252518 -98.613762 39,000 52 475 -64
2019-03-18 04:46:08 GMT 47.252518 -98.613762 39,000 52 475 -64
2019-03-18 04:46:01 GMT 47.242264 -98.633057 38,975 52 474 -64
2019-03-18 04:45:58 GMT 47.237301 -98.642441 39,000 52 473 -64
2019-03-18 04:45:51 GMT 47.228130 -98.659691 39,000 52 473 -64
2019-03-18 04:45:40 GMT 47.214844 -98.684761 38,975 51 472 -64
2019-03-18 04:45:37 GMT 47.209602 -98.694550 39,000 52 471 64
2019-03-18 04:45:31 GMT 47.200653 -98.711403 38,975 52 469 0
2019-03-18 04:45:27 GMT 47.194611 -98.722725 39,000 52 469 0
2019-03-18 04:45:18 GMT 47.185303 -98.740257 39,000 52 468 0
2019-03-18 04:45:10 GMT 47.174641 -98.760185 38,975 51 466 0
2019-03-18 04:45:07 GMT 47.169056 -98.770615 38,975 51 465 -64
2019-03-18 04:44:59 GMT 47.159134 -98.789200 38,975 51 463 -64
2019-03-18 04:44:56 GMT 47.155323 -98.796318 38,975 51 462 -64
2019-03-18 04:44:48 GMT 47.143776 -98.818008 39,000 52 461 128
2019-03-18 04:44:45 GMT 47.139820 -98.825401 38,975 52 460 192
2019-03-18 04:44:39 GMT 47.132000 -98.840195 38,950 52 460 384
2019-03-18 04:44:34 GMT 47.125854 -98.851685 38,925 52 459 384
2019-03-18 04:44:25 GMT 47.112679 -98.876457 38,850 52 458 256
2019-03-18 04:44:18 GMT 47.105026 -98.890892 38,800 52 458 192
2019-03-18 04:44:13 GMT 47.099461 -98.901459 38,800 52 458 192
2019-03-18 04:44:04 GMT 47.085892 -98.927147 38,825 52 455 -192
2019-03-18 04:43:57 GMT 47.077148 -98.943764 38,750 52 455 1152
2019-03-18 04:43:52 GMT 47.072365 -98.952728 38,675 51 455 1408
2019-03-18 04:43:46 GMT 47.064148 -98.968002 38,525 51 457 1600
2019-03-18 04:43:43 GMT 47.059006 -98.977448 38,400 51 460 1920
2019-03-18 04:43:35 GMT 47.050205 -98.993439 38,200 51 463 2240
2019-03-18 04:43:32 GMT 47.045471 -99.001991 38,025 51 466 2816
2019-03-18 04:43:24 GMT 47.035683 -99.020126 37,700 51 471 2176
2019-03-18 04:43:21 GMT 47.031738 -99.027328 37,600 51 474 1600
2019-03-18 04:43:14 GMT 47.021393 -99.046555 37,400 51 477 960
2019-03-18 04:43:11 GMT 47.017433 -99.053864 37,375 51 477 896
2019-03-18 04:43:05 GMT 47.007523 -99.072372 37,250 51 477 896
2019-03-18 04:43:01 GMT 47.003448 -99.079994 37,200 51 477 896
2019-03-18 04:42:54 GMT 46.993507 -99.098579 37,100 51 477 768
2019-03-18 04:42:51 GMT 46.989132 -99.106682 37,050 51 477 704
2019-03-18 04:42:44 GMT 46.978794 -99.125977 37,000 51 477 256
2019-03-18 04:42:39 GMT 46.974140 -99.134567 37,000 51 477 64
2019-03-18 04:42:33 GMT 46.964996 -99.151611 36,975 51 478 -64
2019-03-18 04:42:30 GMT 46.959942 -99.161049 36,975 51 478 -64
2019-03-18 04:42:23 GMT 46.950958 -99.177811 36,975 51 479 -64
2019-03-18 04:42:18 GMT 46.945465 -99.187950 36,975 51 479 -64
2019-03-18 04:42:09 GMT 46.931499 -99.213867 36,975 51 479 -128
2019-03-18 04:42:02 GMT 46.922703 -99.230133 37,000 51 479 -64
2019-03-18 04:41:58 GMT 46.917206 -99.240280 37,000 51 479 -64
2019-03-18 04:41:50 GMT 46.907059 -99.259010 37,000 51 478 -64
2019-03-18 04:41:46 GMT 46.900314 -99.271362 37,000 51 478 -64
2019-03-18 04:41:40 GMT 46.893173 -99.284477 37,000 51 477 -64
2019-03-18 04:41:37 GMT 46.888950 -99.292320 37,000 51 476 -64
2019-03-18 04:41:30 GMT 46.877884 -99.312767 37,000 51 476 -64
2019-03-18 04:41:26 GMT 46.873764 -99.320320 37,000 51 476 0
2019-03-18 04:41:18 GMT 46.863419 -99.339386 36,975 51 475 0
2019-03-18 04:41:15 GMT 46.858875 -99.347649 36,975 51 474 -64
2019-03-18 04:41:09 GMT 46.849380 -99.365158 37,000 51 473 -64
2019-03-18 04:41:04 GMT 46.842957 -99.376900 37,000 51 473 0
2019-03-18 04:40:58 GMT 46.835461 -99.390633 36,975 51 473 0
2019-03-18 04:40:54 GMT 46.830574 -99.399628 37,000 51 472 0
2019-03-18 04:40:48 GMT 46.820938 -99.417290 36,975 51 472 -64
2019-03-18 04:40:34 GMT 46.802597 -99.450920 36,975 51 472 -64
2019-03-18 04:40:26 GMT 46.793053 -99.468361 36,975 51 473 -64
2019-03-18 04:40:22 GMT 46.787048 -99.479279 36,975 51 472 -64
2019-03-18 04:40:16 GMT 46.777828 -99.496239 36,975 51 473 -64
2019-03-18 04:40:12 GMT 46.770756 -99.509216 37,000 51 473 -64
2019-03-18 04:40:06 GMT 46.752506 -99.542519 37,000 51 473 -64
2019-03-18 04:39:54 GMT 46.742962 -99.559959 36,975 51 473 -64
2019-03-18 04:39:45 GMT 46.734257 -99.575890 37,000 51 473 -64
2019-03-18 04:39:42 GMT 46.731232 -99.581314 37,000 51 473 -64
2019-03-18 04:39:33 GMT 46.720898 -99.600197 37,000 51 472 -64
2019-03-18 04:39:27 GMT 46.710983 -99.618332 37,000 51 472 -64
2019-03-18 04:39:24 GMT 46.706360 -99.626770 36,975 51 471 -64
2019-03-18 04:39:20 GMT 46.702415 -99.633911 36,975 51 472 0
2019-03-18 04:39:13 GMT 46.692490 -99.652023 37,000 51 472 -64
2019-03-18 04:39:10 GMT 46.687866 -99.660469 36,975 51 472 -64
2019-03-18 04:39:03 GMT 46.677090 -99.680054 37,000 51 472 -64
2019-03-18 04:38:58 GMT 46.672348 -99.688667 37,000 51 472 -64
2019-03-18 04:38:51 GMT 46.663498 -99.704773 36,975 51 472 -64
2019-03-18 04:38:41 GMT 46.650139 -99.729080 36,975 51 472 -64
2019-03-18 04:38:31 GMT 46.635223 -99.756058 37,000 51 473 -64
2019-03-18 04:38:20 GMT 46.621136 -99.781609 37,000 51 473 -64
2019-03-18 04:38:10 GMT 46.606476 -99.808113 36,975 51 474 0
2019-03-18 04:38:06 GMT 46.601532 -99.817024 36,975 51 473 0
2019-03-18 04:37:59 GMT 46.591965 -99.834373 36,975 51 474 0
2019-03-18 04:37:54 GMT 46.582825 -99.851028 36,975 51 474 0
2019-03-18 04:37:49 GMT 46.577454 -99.860695 36,975 51 474 -64
2019-03-18 04:37:46 GMT 46.574863 -99.865379 36,975 51 474 -64
2019-03-18 04:37:38 GMT 46.563316 -99.886253 37,000 51 475 -64
2019-03-18 04:37:29 GMT 46.549347 -99.911278 37,000 50 476 -64
2019-03-18 04:37:18 GMT 46.535156 -99.936600 37,000 51 478 -64
2019-03-18 04:37:08 GMT 46.519867 -99.964798 37,000 52 479 -64
2019-03-18 04:36:56 GMT 46.506149 -99.991310 37,000 53 480 -64
2019-03-18 04:36:47 GMT 46.492218 -100.019264 36,975 54 483 0
2019-03-18 04:36:36 GMT 46.479710 -100.045555 36,975 56 484 -64
2019-03-18 04:36:26 GMT 46.465370 -100.077003 36,975 56 486 -64
2019-03-18 04:36:14 GMT 46.452103 -100.106461 36,975 56 487 -64
2019-03-18 04:36:04 GMT 46.439533 -100.134270 37,000 56 488 -64
2019-03-18 04:35:53 GMT 46.426804 -100.162422 37,000 56 489 -64
2019-03-18 04:35:42 GMT 46.413559 -100.191742 37,000 56 489 -64
2019-03-18 04:35:32 GMT 46.400848 -100.219894 37,000 56 489 -64
2019-03-18 04:35:21 GMT 46.387756 -100.248901 37,000 56 489 -64
2019-03-18 04:35:10 GMT 46.374550 -100.278191 37,000 56 488 -64
2019-03-18 04:35:00 GMT 46.361187 -100.307648 36,975 56 488 -64
2019-03-18 04:34:51 GMT 46.349442 -100.333580 37,000 56 488 -64
2019-03-18 04:34:40 GMT 46.336189 -100.362717 37,000 56 488 -64
2019-03-18 04:34:30 GMT 46.323166 -100.391327 36,975 56 488 -64
2019-03-18 04:34:18 GMT 46.310074 -100.420128 37,000 56 488 -64
2019-03-18 04:34:09 GMT 46.297318 -100.448135 37,000 56 488 -64
2019-03-18 04:33:58 GMT 46.283798 -100.477745 37,000 56 487 -64
2019-03-18 04:33:48 GMT 46.270889 -100.505875 37,000 56 487 -64
2019-03-18 04:33:36 GMT 46.257610 -100.534790 36,975 56 487 0
2019-03-18 04:33:26 GMT 46.245346 -100.561546 36,975 56 485 0
2019-03-18 04:33:16 GMT 46.232483 -100.589684 36,975 56 486 -64
2019-03-18 04:33:05 GMT 46.218887 -100.619423 37,000 56 486 -64
2019-03-18 04:32:56 GMT 46.206356 -100.646713 37,000 56 487 -64
2019-03-18 04:32:44 GMT 46.193413 -100.674866 36,975 56 487 0
2019-03-18 04:32:35 GMT 46.180344 -100.703163 37,000 56 487 -64
2019-03-18 04:32:24 GMT 46.167297 -100.731514 37,000 56 487 -64
2019-03-18 04:32:14 GMT 46.154480 -100.759369 37,000 56 488 0
2019-03-18 04:32:03 GMT 46.141647 -100.787201 36,975 56 488 -64
2019-03-18 04:31:53 GMT 46.128296 -100.816177 36,975 56 488 -64
2019-03-18 04:31:42 GMT 46.114925 -100.845085 37,000 56 489 -64
2019-03-18 04:31:32 GMT 46.102356 -100.872139 36,975 56 488 0
2019-03-18 04:31:20 GMT 46.088974 -100.901047 37,000 56 488 -64
2019-03-18 04:31:11 GMT 46.075699 -100.929726 37,000 56 488 -64
2019-03-18 04:31:00 GMT 46.063251 -100.956390 36,975 56 488 0
2019-03-18 04:30:49 GMT 46.049149 -100.986931 36,975 56 488 -64
2019-03-18 04:30:38 GMT 46.035461 -101.016266 36,975 56 488 -64
2019-03-18 04:30:29 GMT 46.023514 -101.041862 37,000 56 488 -64
2019-03-18 04:30:18 GMT 46.010468 -101.069931 37,000 56 489 0
2019-03-18 04:30:07 GMT 45.996731 -101.099281 36,975 56 490 -64
2019-03-18 04:29:57 GMT 45.982773 -101.129219 37,000 56 489 -64
2019-03-18 04:29:46 GMT 45.970184 -101.156212 37,000 56 490 -64
2019-03-18 04:29:36 GMT 45.956928 -101.184494 37,000 56 490 -64
We lost coverage of the aircraft here for a total of 22 minutes
2019-03-18 04:07:32 GMT 44.201611 -104.705070 37,000 54 498 0
2019-03-18 04:06:16 GMT 44.094879 -104.905830 36,975 54 497 0
2019-03-18 04:05:56 GMT 44.067631 -104.956932 37,000 54 499 0
2019-03-18 04:05:36 GMT 44.040791 -105.007004 37,000 54 499 0
2019-03-18 04:04:56 GMT 43.984001 -105.112808 36,975 53 505 -64
2019-03-18 04:04:36 GMT 43.955509 -105.165710 36,975 54 501 0
2019-03-18 04:04:16 GMT 43.928970 -105.215019 36,975 53 507 0
2019-03-18 04:03:56 GMT 43.900581 -105.267601 37,000 53 509 0
2019-03-18 04:03:17 GMT 43.847462 -105.365753 36,975 53 511 -64
2019-03-18 04:03:08 GMT 43.832703 -105.392891 37,000 53 511 -64
2019-03-18 04:02:56 GMT 43.815811 -105.423973 36,975 53 511 0
2019-03-18 04:02:34 GMT 43.785034 -105.480522 37,000 53 510 -64
2019-03-18 04:02:27 GMT 43.776234 -105.496605 36,975 53 510 0
2019-03-18 04:02:19 GMT 43.762711 -105.521385 37,000 53 510 0
2019-03-18 04:02:07 GMT 43.748116 -105.548141 36,975 53 510 -64
2019-03-18 04:01:57 GMT 43.733360 -105.575150 37,000 53 510 -64
2019-03-18 04:01:47 GMT 43.718445 -105.602440 37,000 53 510 -64
2019-03-18 04:01:36 GMT 43.702835 -105.631058 37,000 53 511 0
2019-03-18 04:01:26 GMT 43.687775 -105.658646 36,975 53 512 0
2019-03-18 04:01:14 GMT 43.673264 -105.685219 37,000 53 511 -64
2019-03-18 04:01:04 GMT 43.658085 -105.713066 36,975 53 511 -64
2019-03-18 04:00:54 GMT 43.643188 -105.740402 36,975 53 511 -64
2019-03-18 04:00:42 GMT 43.627686 -105.768784 37,000 53 511 -64
2019-03-18 04:00:33 GMT 43.612473 -105.796677 37,000 53 512 -64
2019-03-18 04:00:22 GMT 43.597893 -105.823448 37,000 53 511 -64
2019-03-18 04:00:11 GMT 43.582855 -105.851051 37,000 53 510 -64
2019-03-18 04:00:01 GMT 43.567822 -105.878517 37,000 53 510 -64
2019-03-18 03:59:50 GMT 43.552505 -105.906502 37,000 52 509 0
2019-03-18 03:59:39 GMT 43.536987 -105.934586 36,975 52 508 -64
2019-03-18 03:59:28 GMT 43.521835 -105.961731 37,000 52 508 -64
2019-03-18 03:59:17 GMT 43.506233 -105.988770 37,000 51 507 -64
2019-03-18 03:59:07 GMT 43.490032 -106.016304 37,000 51 506 -64
2019-03-18 03:58:56 GMT 43.474182 -106.042915 36,975 50 505 -64
2019-03-18 03:58:46 GMT 43.458389 -106.069168 36,975 50 506 -64
2019-03-18 03:58:35 GMT 43.442871 -106.094910 37,000 50 506 -64
2019-03-18 03:58:25 GMT 43.426712 -106.121605 36,975 50 506 -64
2019-03-18 03:58:13 GMT 43.411194 -106.147285 36,975 50 506 -64
2019-03-18 03:58:03 GMT 43.395630 -106.173027 37,000 50 507 -64
2019-03-18 03:57:53 GMT 43.379330 -106.199997 36,975 50 507 -64
2019-03-18 03:57:41 GMT 43.362076 -106.228470 36,975 50 507 -64
2019-03-18 03:57:32 GMT 43.347107 -106.253250 37,000 50 508 -64
2019-03-18 03:57:20 GMT 43.330307 -106.280975 37,000 50 507 -64
2019-03-18 03:57:09 GMT 43.314808 -106.306389 37,000 50 507 -64
2019-03-18 03:57:00 GMT 43.299316 -106.331818 36,975 50 508 -64
2019-03-18 03:56:49 GMT 43.283707 -106.357559 37,000 50 508 -64
2019-03-18 03:56:38 GMT 43.267651 -106.383949 36,975 50 507 -64
2019-03-18 03:56:28 GMT 43.251251 -106.410889 37,000 50 508 -64
2019-03-18 03:56:16 GMT 43.235275 -106.437019 36,975 50 508 -64
2019-03-18 03:56:06 GMT 43.219749 -106.462486 37,000 50 508 -64
2019-03-18 03:55:56 GMT 43.203129 -106.489632 37,000 50 509 -64
2019-03-18 03:55:45 GMT 43.188046 -106.514282 36,975 50 509 -64
2019-03-18 03:55:35 GMT 43.171280 -106.541702 37,000 50 509 0
2019-03-18 03:55:24 GMT 43.155533 -106.567322 36,975 50 509 -64
2019-03-18 03:55:12 GMT 43.138916 -106.594467 37,000 50 509 -64
2019-03-18 03:55:03 GMT 43.123013 -106.620354 36,975 50 509 -64
2019-03-18 03:54:52 GMT 43.106998 -106.646507 37,000 50 508 -64
2019-03-18 03:54:41 GMT 43.090939 -106.672600 37,000 49 509 -64
2019-03-18 03:54:31 GMT 43.074554 -106.699150 36,975 49 509 -64
2019-03-18 03:54:20 GMT 43.058670 -106.724960 36,975 49 509 -64
2019-03-18 03:54:09 GMT 43.042282 -106.751465 36,975 49 510 -64
2019-03-18 03:53:59 GMT 43.025997 -106.777824 37,000 49 511 -64
2019-03-18 03:53:46 GMT 43.007469 -106.807838 37,000 49 510 -64
2019-03-18 03:53:37 GMT 42.994110 -106.829483 36,975 49 510 -64
2019-03-18 03:53:27 GMT 42.977676 -106.855972 36,975 49 510 -64
2019-03-18 03:53:16 GMT 42.961716 -106.881767 37,000 49 509 -64
2019-03-18 03:53:06 GMT 42.945465 -106.907959 36,975 49 508 -64
2019-03-18 03:52:54 GMT 42.927750 -106.936577 37,000 49 508 -64
2019-03-18 03:52:43 GMT 42.912872 -106.960464 37,000 49 508 -64
2019-03-18 03:52:34 GMT 42.897236 -106.985649 37,000 49 508 -64
2019-03-18 03:52:22 GMT 42.880692 -107.012199 37,000 49 508 -64
2019-03-18 03:52:12 GMT 42.864742 -107.037834 37,000 49 508 -64
2019-03-18 03:52:02 GMT 42.849239 -107.062683 36,975 49 508 -64
2019-03-18 03:51:50 GMT 42.832249 -107.089951 36,975 49 507 0
2019-03-18 03:51:41 GMT 42.816189 -107.115715 36,975 49 507 -64
2019-03-18 03:51:30 GMT 42.800858 -107.140228 37,000 49 507 -64
2019-03-18 03:51:19 GMT 42.784149 -107.166946 37,000 49 506 -64
2019-03-18 03:51:09 GMT 42.768356 -107.192169 37,000 49 506 -64
2019-03-18 03:50:57 GMT 42.752289 -107.217758 37,000 49 505 -64
2019-03-18 03:50:48 GMT 42.735744 -107.244125 36,975 49 505 -64
2019-03-18 03:50:36 GMT 42.718643 -107.271385 37,000 49 505 -64
2019-03-18 03:50:26 GMT 42.704132 -107.294540 37,000 49 504 -64
2019-03-18 03:50:16 GMT 42.687149 -107.321510 37,000 49 505 -64
2019-03-18 03:50:05 GMT 42.671223 -107.346710 37,000 49 505 -64
2019-03-18 03:49:53 GMT 42.654739 -107.372940 36,975 49 505 -64
2019-03-18 03:49:44 GMT 42.638947 -107.397972 37,000 49 505 -64
2019-03-18 03:49:32 GMT 42.623199 -107.423004 36,975 49 505 -64
2019-03-18 03:49:22 GMT 42.607086 -107.448540 37,000 49 505 -64
2019-03-18 03:49:12 GMT 42.590652 -107.474503 36,975 49 505 -64
2019-03-18 03:49:00 GMT 42.574722 -107.499687 37,000 49 505 -64
2019-03-18 03:48:51 GMT 42.558567 -107.525108 36,975 49 505 -64
2019-03-18 03:48:40 GMT 42.542740 -107.550087 36,975 49 505 -64
2019-03-18 03:48:29 GMT 42.526028 -107.576530 37,000 49 506 -64
2019-03-18 03:48:19 GMT 42.510155 -107.601501 37,000 49 506 -64
2019-03-18 03:48:07 GMT 42.493675 -107.627373 36,975 49 506 0
2019-03-18 03:47:57 GMT 42.477520 -107.652794 36,975 49 506 0
2019-03-18 03:47:47 GMT 42.461243 -107.678436 37,000 49 506 -64
2019-03-18 03:47:36 GMT 42.445084 -107.703842 37,000 49 505 -64
2019-03-18 03:47:24 GMT 42.428127 -107.730400 37,000 49 505 -64
2019-03-18 03:47:15 GMT 42.412125 -107.755470 37,000 49 505 -64
2019-03-18 03:47:03 GMT 42.396240 -107.780251 36,975 49 505 0
2019-03-18 03:46:53 GMT 42.380081 -107.805527 36,975 49 505 0
2019-03-18 03:46:43 GMT 42.363747 -107.831062 37,000 49 504 -64
2019-03-18 03:46:32 GMT 42.348038 -107.855591 36,975 49 504 -64
2019-03-18 03:46:22 GMT 42.331440 -107.881531 37,000 49 504 -64
2019-03-18 03:46:11 GMT 42.314960 -107.907143 37,000 49 504 0
2019-03-18 03:46:00 GMT 42.298805 -107.932304 36,975 49 504 0
2019-03-18 03:45:50 GMT 42.282932 -107.957024 36,975 49 504 0
2019-03-18 03:45:39 GMT 42.265244 -107.984619 37,000 49 505 -64
2019-03-18 03:45:28 GMT 42.250252 -108.007866 36,975 49 505 -64
2019-03-18 03:45:18 GMT 42.233276 -108.034248 37,000 49 505 0
2019-03-18 03:45:07 GMT 42.217667 -108.058464 37,000 49 505 0
2019-03-18 03:44:55 GMT 42.200626 -108.084770 36,975 49 504 -64
2019-03-18 03:44:44 GMT 42.183170 -108.111794 36,975 49 504 0
2019-03-18 03:44:33 GMT 42.164658 -108.140427 37,000 49 504 -64
2019-03-18 03:44:23 GMT 42.151794 -108.160339 36,975 49 504 -64
2019-03-18 03:44:13 GMT 42.135406 -108.185570 36,975 48 503 0
2019-03-18 03:44:01 GMT 42.116913 -108.214149 37,000 48 503 -64
2019-03-18 03:43:51 GMT 42.101624 -108.237679 37,000 48 503 -64
2019-03-18 03:43:30 GMT 42.069397 -108.287384 37,000 48 502 -64
2019-03-18 03:43:16 GMT 42.049393 -108.318146 37,000 48 502 -64
2019-03-18 03:43:09 GMT 42.037491 -108.336433 36,975 48 501 -64
2019-03-18 03:42:57 GMT 42.019455 -108.364082 37,000 48 502 -64
2019-03-18 03:42:45 GMT 42.000824 -108.392609 37,000 48 501 -64
2019-03-18 03:42:38 GMT 41.988602 -108.411400 36,975 48 501 0
2019-03-18 03:42:21 GMT 41.963398 -108.450005 37,000 48 502 -64
2019-03-18 03:42:15 GMT 41.956043 -108.461250 37,000 48 501 -64
2019-03-18 03:42:06 GMT 41.940582 -108.484871 37,000 48 501 -64
2019-03-18 03:41:55 GMT 41.923595 -108.510750 37,000 48 501 -64
2019-03-18 03:41:44 GMT 41.907532 -108.535309 36,975 48 501 -64
2019-03-18 03:41:33 GMT 41.889771 -108.562401 37,000 48 501 -64
2019-03-18 03:40:32 GMT 41.797577 -108.702477 37,000 48 500 0
2019-03-18 03:40:29 GMT 41.791763 -108.711273 37,000 48 500 0
2019-03-18 03:36:29 GMT 41.414932 -109.246864 37,000 44 494 -64
2019-03-18 03:36:18 GMT 41.398209 -109.268936 37,000 44 494 0
2019-03-18 03:36:08 GMT 41.382111 -109.290100 37,000 44 494 -64
2019-03-18 03:35:57 GMT 41.364212 -109.313599 36,975 44 494 -64
2019-03-18 03:35:48 GMT 41.347466 -109.335564 36,975 44 494 -64
2019-03-18 03:35:37 GMT 41.330891 -109.357346 37,000 44 494 -64
2019-03-18 03:34:18 GMT 41.202255 -109.525391 37,000 44 494 -64
2019-03-18 03:34:14 GMT 41.194260 -109.535812 37,000 44 494 -64
2019-03-18 03:34:03 GMT 41.177765 -109.557251 36,975 44 494 -64
2019-03-18 03:33:53 GMT 41.160187 -109.580200 37,000 44 494 -64
2019-03-18 03:33:42 GMT 41.143524 -109.601868 37,000 44 494 -64
2019-03-18 03:33:31 GMT 41.126389 -109.624138 37,000 44 494 -64
2019-03-18 03:33:21 GMT 41.110374 -109.644989 37,000 44 494 -64
2019-03-18 03:33:11 GMT 41.092575 -109.668091 37,000 44 495 -64
2019-03-18 03:33:01 GMT 41.075367 -109.690369 37,000 44 495 -64
2019-03-18 03:32:50 GMT 41.058517 -109.712158 37,000 44 495 -64
2019-03-18 03:32:40 GMT 41.041336 -109.734444 37,000 44 495 -64
2019-03-18 03:32:29 GMT 41.024460 -109.756287 37,000 44 495 -64
2019-03-18 03:32:18 GMT 41.006935 -109.778946 37,000 44 495 0
2019-03-18 03:32:08 GMT 40.990223 -109.800545 36,975 44 495 0
2019-03-18 03:31:58 GMT 40.973007 -109.822754 36,975 44 496 -64
2019-03-18 03:31:48 GMT 40.955124 -109.845802 37,000 44 495 -64
2019-03-18 03:31:37 GMT 40.938736 -109.866905 36,975 44 496 -64
2019-03-18 03:31:24 GMT 40.916565 -109.895447 37,000 44 496 -64
2019-03-18 03:30:38 GMT 40.841862 -109.991371 37,000 44 495 -64
2019-03-18 03:30:31 GMT 40.828732 -110.008224 37,000 44 495 0
2019-03-18 03:30:20 GMT 40.813648 -110.027512 36,975 44 495 -64
2019-03-18 03:30:13 GMT 40.800659 -110.044128 37,000 44 495 0
2019-03-18 03:29:57 GMT 40.774918 -110.077141 36,975 44 495 -64
2019-03-18 03:29:53 GMT 40.767883 -110.086182 37,000 44 495 -64
2019-03-18 03:29:42 GMT 40.750168 -110.108826 36,975 44 495 -64
2019-03-18 03:29:32 GMT 40.732407 -110.131470 37,000 44 495 -64
2019-03-18 03:29:20 GMT 40.715145 -110.153481 37,000 44 495 0
2019-03-18 03:29:09 GMT 40.696758 -110.176956 37,000 44 495 -64
2019-03-18 03:28:59 GMT 40.679169 -110.199341 36,975 44 494 -64
2019-03-18 03:28:48 GMT 40.662216 -110.220833 36,975 44 494 0
2019-03-18 03:28:39 GMT 40.646156 -110.241310 37,000 44 494 -64
2019-03-18 03:28:29 GMT 40.629913 -110.261963 37,000 44 493 -64
2019-03-18 03:27:51 GMT 40.566650 -110.342224 37,000 44 492 -64
2019-03-18 03:27:45 GMT 40.558311 -110.352798 37,000 44 492 0
2019-03-18 03:27:37 GMT 40.543762 -110.371216 36,975 43 491 0
2019-03-18 03:27:26 GMT 40.527214 -110.392120 36,975 43 491 -64
2019-03-18 03:27:15 GMT 40.509571 -110.414406 37,000 44 490 -64
2019-03-18 03:27:05 GMT 40.493774 -110.434448 37,000 44 490 -64
2019-03-18 03:26:48 GMT 40.465027 -110.470764 36,975 43 490 0
2019-03-18 03:26:45 GMT 40.458645 -110.478767 36,975 43 490 0
2019-03-18 03:26:34 GMT 40.442631 -110.498924 37,000 43 490 -64
2019-03-18 03:26:24 GMT 40.424706 -110.521523 37,000 43 489 -64
2019-03-18 03:26:13 GMT 40.408039 -110.542435 36,975 43 490 0
2019-03-18 03:26:02 GMT 40.391094 -110.563782 37,000 43 490 -64
2019-03-18 03:25:52 GMT 40.373611 -110.585815 37,000 43 490 -64
2019-03-18 03:25:39 GMT 40.351044 -110.614136 36,975 43 490 0
2019-03-18 03:25:27 GMT 40.333836 -110.635696 36,975 43 490 0
2019-03-18 03:25:21 GMT 40.322384 -110.650055 36,975 43 490 -64
2019-03-18 03:25:17 GMT 40.316620 -110.657227 36,975 43 490 -64
2019-03-18 03:25:11 GMT 40.305496 -110.671143 37,000 43 490 -64
2019-03-18 03:25:06 GMT 40.299271 -110.678955 37,000 43 490 -64
2019-03-18 03:25:00 GMT 40.289108 -110.691711 37,000 43 490 -64
2019-03-18 03:24:56 GMT 40.282242 -110.700317 37,000 43 490 -64
2019-03-18 03:24:49 GMT 40.270943 -110.714470 37,000 43 490 -64
2019-03-18 03:24:46 GMT 40.264427 -110.722649 37,000 43 490 -64
2019-03-18 03:24:39 GMT 40.254410 -110.735168 37,000 43 490 0
2019-03-18 03:24:34 GMT 40.247341 -110.743935 37,000 43 490 0
2019-03-18 03:24:29 GMT 40.236694 -110.757263 36,975 43 490 0
2019-03-18 03:24:25 GMT 40.230305 -110.765221 36,975 43 490 0
2019-03-18 03:24:18 GMT 40.219830 -110.778328 36,975 43 490 -64
2019-03-18 03:24:11 GMT 40.209309 -110.791435 36,975 43 490 0
2019-03-18 03:24:08 GMT 40.201767 -110.800804 37,000 43 490 0
2019-03-18 03:24:02 GMT 40.194397 -110.809998 37,000 43 490 -64
2019-03-18 03:23:57 GMT 40.185562 -110.821045 36,975 43 490 -64
2019-03-18 03:23:53 GMT 40.178165 -110.830200 37,000 43 490 0
2019-03-18 03:23:46 GMT 40.167973 -110.842873 37,000 43 490 0
2019-03-18 03:23:41 GMT 40.160427 -110.852303 36,975 43 490 -64
2019-03-18 03:23:36 GMT 40.151093 -110.863892 36,975 43 490 -64
2019-03-18 03:23:32 GMT 40.143719 -110.873085 36,975 43 490 -64
2019-03-18 03:23:26 GMT 40.134064 -110.885132 37,000 43 490 -64
2019-03-18 03:23:20 GMT 40.126026 -110.895119 37,000 43 490 -64
2019-03-18 03:23:16 GMT 40.117184 -110.906174 37,000 43 490 -64
2019-03-18 03:23:11 GMT 40.109966 -110.915161 37,000 43 490 -64
2019-03-18 03:23:05 GMT 40.100235 -110.927185 37,000 43 490 -64
2019-03-18 03:23:00 GMT 40.091206 -110.938377 37,000 43 491 -64
2019-03-18 03:22:49 GMT 40.073593 -110.960205 36,975 43 491 -64
2019-03-18 03:22:44 GMT 40.065556 -110.970215 37,000 43 491 -64
2019-03-18 03:22:39 GMT 40.056339 -110.981644 37,000 43 491 -64
2019-03-18 03:22:33 GMT 40.048279 -110.991638 36,975 43 491 -64
2019-03-18 03:22:27 GMT 40.039032 -111.002991 36,975 43 490 -64
2019-03-18 03:22:23 GMT 40.031292 -111.012604 36,975 43 490 -64
2019-03-18 03:22:18 GMT 40.021423 -111.024773 36,975 43 490 -64
2019-03-18 03:22:12 GMT 40.013718 -111.034363 37,000 43 490 -64
2019-03-18 03:22:08 GMT 40.005478 -111.044495 37,000 43 490 -64
2019-03-18 03:22:02 GMT 39.996754 -111.055298 37,000 43 490 -64
2019-03-18 03:21:55 GMT 39.986069 -111.068481 37,000 43 490 -64
2019-03-18 03:21:51 GMT 39.978836 -111.077454 37,000 43 490 0
2019-03-18 03:21:46 GMT 39.968674 -111.090027 36,975 43 490 0
2019-03-18 03:21:34 GMT 39.950710 -111.112167 37,000 43 490 -64
2019-03-18 03:21:25 GMT 39.934753 -111.131836 36,975 43 490 -64
2019-03-18 03:21:14 GMT 39.917751 -111.152771 37,000 43 491 -64
2019-03-18 03:21:04 GMT 39.899643 -111.175110 36,975 43 491 0
2019-03-18 03:20:52 GMT 39.882465 -111.196289 36,975 43 492 0
2019-03-18 03:20:40 GMT 39.862473 -111.220871 37,000 43 492 -64
2019-03-18 03:20:32 GMT 39.846588 -111.240334 36,975 43 493 -64
2019-03-18 03:20:20 GMT 39.829208 -111.261658 37,000 43 492 0
2019-03-18 03:20:11 GMT 39.812313 -111.282349 36,975 43 493 -64
2019-03-18 03:19:59 GMT 39.794483 -111.304321 36,975 43 493 -64
2019-03-18 03:19:48 GMT 39.776279 -111.326599 37,000 43 493 -64
2019-03-18 03:19:39 GMT 39.759888 -111.346672 37,000 43 492 0
2019-03-18 03:19:28 GMT 39.742676 -111.367752 36,975 43 492 -64
2019-03-18 03:19:18 GMT 39.724777 -111.389603 36,975 43 492 -64
2019-03-18 03:19:06 GMT 39.704403 -111.414429 36,975 43 491 -64
2019-03-18 03:18:57 GMT 39.691181 -111.430603 37,000 43 491 -64
2019-03-18 03:18:47 GMT 39.672821 -111.453018 36,975 43 490 0
2019-03-18 03:18:35 GMT 39.655289 -111.474388 36,975 43 490 -64
2019-03-18 03:18:31 GMT 39.649193 -111.481873 37,000 43 490 -64
2019-03-18 03:18:24 GMT 39.636299 -111.497559 36,975 43 490 -64
2019-03-18 03:18:14 GMT 39.618576 -111.519051 37,000 43 491 0
2019-03-18 03:18:02 GMT 39.601044 -111.540428 37,000 43 491 -64
2019-03-18 03:17:53 GMT 39.583466 -111.561745 37,000 43 491 -64
2019-03-18 03:17:43 GMT 39.568222 -111.580315 37,000 43 492 0
2019-03-18 03:17:40 GMT 39.564747 -111.584534 37,000 43 492 0
2019-03-18 03:17:33 GMT 39.550781 -111.601440 36,975 43 492 0
2019-03-18 03:17:21 GMT 39.530731 -111.625809 36,975 43 491 -64
2019-03-18 03:17:09 GMT 39.512787 -111.647484 37,000 43 491 -64
2019-03-18 03:17:01 GMT 39.497864 -111.665573 37,000 43 492 -64
2019-03-18 03:16:49 GMT 39.478271 -111.689278 37,000 43 491 0
2019-03-18 03:16:40 GMT 39.462471 -111.708313 36,975 43 492 0
2019-03-18 03:16:27 GMT 39.442593 -111.732422 36,975 43 491 -64
2019-03-18 03:16:18 GMT 39.427826 -111.750244 37,000 43 490 -64
2019-03-18 03:16:07 GMT 39.410427 -111.771240 37,000 43 490 -64
2019-03-18 03:15:57 GMT 39.392670 -111.792633 36,975 43 490 -64
2019-03-18 03:15:50 GMT 39.381565 -111.805969 37,000 43 490 -64
2019-03-18 03:15:47 GMT 39.374771 -111.814194 37,000 43 490 -64
2019-03-18 03:15:42 GMT 39.368343 -111.821960 37,000 43 490 0
2019-03-18 03:15:33 GMT 39.351768 -111.841919 37,000 43 490 -64
2019-03-18 03:15:26 GMT 39.339851 -111.856323 37,000 43 490 0
2019-03-18 03:15:14 GMT 39.322582 -111.877014 36,975 43 489 0
2019-03-18 03:15:07 GMT 39.310501 -111.891571 36,975 43 490 0
2019-03-18 03:15:04 GMT 39.304871 -111.898315 36,975 42 490 0
2019-03-18 03:14:59 GMT 39.296047 -111.908875 36,975 42 490 0
2019-03-18 03:14:54 GMT 39.287247 -111.919395 37,000 42 490 -64
2019-03-18 03:14:50 GMT 39.280777 -111.927124 36,975 42 490 -64
2019-03-18 03:14:43 GMT 39.269512 -111.940613 37,000 43 489 -64
2019-03-18 03:14:38 GMT 39.262577 -111.948975 36,975 43 489 -64
2019-03-18 03:14:33 GMT 39.252136 -111.961494 37,000 43 489 -64
2019-03-18 03:14:24 GMT 39.239067 -111.977173 37,000 42 488 0
2019-03-18 03:14:21 GMT 39.234238 -111.982925 37,000 42 488 0
2019-03-18 03:14:18 GMT 39.227280 -111.991226 37,000 42 488 0
2019-03-18 03:14:11 GMT 39.216862 -112.003723 36,975 42 488 0
2019-03-18 03:14:07 GMT 39.210068 -112.011826 37,000 42 488 0
2019-03-18 03:14:01 GMT 39.199963 -112.023926 37,000 42 488 -64
2019-03-18 03:13:50 GMT 39.181961 -112.045502 36,975 42 488 0
2019-03-18 03:13:41 GMT 39.167889 -112.062256 36,975 42 488 0
2019-03-18 03:13:38 GMT 39.161774 -112.069626 36,975 42 488 0
2019-03-18 03:13:28 GMT 39.146057 -112.088379 37,000 42 488 -64
2019-03-18 03:13:24 GMT 39.137444 -112.098633 37,000 42 488 0
2019-03-18 03:13:18 GMT 39.128460 -112.109314 36,975 42 489 0

Making use of Plane Finder data

You are free to use the raw flight data, aircraft information and images provided in this report for your own purposes provided the data is correctly attributed to Plane Finder. We ask that you please credit Plane Finder and link to planefinder.net in close proximity to the content.

Optionally one of the following logos (no smaller then 150x24px) can be used and must link to planefinder.net

Embedding the Plane Finder map

You are welcome to embed the Plane Finder playback map on your website to offer visitors a more interactive experience. We suggest using the following HTML code:

<iframe src="//planefinder.net/data/report/BA280-G-ZBKC-7700-squawk-2019-03-18/map" width="800" height="600" seamless="seamless"></iframe>

Where our data comes from

Plane Finder has a global network of data feeds and antenna radars that receive data broadcast directly from aircraft. The primary technologies used are ADS-B and MLAT. We also show feeds from the FAA and a FLARM glider feed.

Click here to find out more about the Plane Finder network.

How we collect our data